<?xml version="1.0" encoding="UTF-8" standalone="no" ?>
<gpx xmlns="http://www.topografix.com/GPX/1/1" xmlns:xsi="http://www.w3.org/2001/XMLSchema-instance" xsi:schemaLocation="http://www.topografix.com/GPX/1/1 http://www.topografix.com/GPX/1/1/gpx.xsd" version="1.1" creator="VisuGPX - https://www.visugpx.com">
  <metadata>
    <name>Mas de Londres - Jasse</name>
    <desc><![CDATA[Petite randonnée. Boucle dans le sens anti horaire. Départ Mas de Londres.]]></desc>
  </metadata>
  <trk>
    <name><![CDATA[Mas de Londres - Jasse - Tracé 2 sept. 2018 13:38:52]]></name>
    <trkseg>
      <trkpt lat="43.78447" lon="3.757">
        <ele>241</ele>
        <time>2018-09-02T11:38:52Z</time>
      </trkpt>
      <trkpt lat="43.78444" lon="3.7569">
        <ele>191.02378116118</ele>
        <time>2018-09-02T11:40:01Z</time>
      </trkpt>
      <trkpt lat="43.78443" lon="3.75679">
        <ele>205.02340994956</ele>
        <time>2018-09-02T11:40:29Z</time>
      </trkpt>
      <trkpt lat="43.78436" lon="3.75672">
        <ele>207.02319518226</ele>
        <time>2018-09-02T11:40:36Z</time>
      </trkpt>
      <trkpt lat="43.78432" lon="3.75662">
        <ele>208.02284578128</ele>
        <time>2018-09-02T11:40:43Z</time>
      </trkpt>
      <trkpt lat="43.78424" lon="3.75657">
        <ele>209.02267085688</ele>
        <time>2018-09-02T11:40:51Z</time>
      </trkpt>
      <trkpt lat="43.78415" lon="3.75652">
        <ele>209.02251743937</ele>
        <time>2018-09-02T11:41:00Z</time>
      </trkpt>
      <trkpt lat="43.78407" lon="3.75649">
        <ele>211.02241905614</ele>
        <time>2018-09-02T11:41:07Z</time>
      </trkpt>
      <trkpt lat="43.78398" lon="3.75649">
        <ele>211.02242872541</ele>
        <time>2018-09-02T11:41:14Z</time>
      </trkpt>
      <trkpt lat="43.7839" lon="3.7565">
        <ele>213.0224616895</ele>
        <time>2018-09-02T11:41:19Z</time>
      </trkpt>
      <trkpt lat="43.78381" lon="3.75649">
        <ele>214.02244053856</ele>
        <time>2018-09-02T11:41:26Z</time>
      </trkpt>
      <trkpt lat="43.78372" lon="3.75647">
        <ele>217.02237864649</ele>
        <time>2018-09-02T11:41:36Z</time>
      </trkpt>
      <trkpt lat="43.78364" lon="3.75649">
        <ele>219.02246649329</ele>
        <time>2018-09-02T11:42:14Z</time>
      </trkpt>
      <trkpt lat="43.78357" lon="3.75654">
        <ele>218.02264809216</ele>
        <time>2018-09-02T11:42:21Z</time>
      </trkpt>
      <trkpt lat="43.78349" lon="3.75659">
        <ele>215.02283285408</ele>
        <time>2018-09-02T11:42:28Z</time>
      </trkpt>
      <trkpt lat="43.78342" lon="3.75665">
        <ele>213.02304953642</ele>
        <time>2018-09-02T11:42:34Z</time>
      </trkpt>
      <trkpt lat="43.78334" lon="3.7567">
        <ele>215.02323662402</ele>
        <time>2018-09-02T11:42:40Z</time>
      </trkpt>
      <trkpt lat="43.78328" lon="3.75678">
        <ele>216.02350848264</ele>
        <time>2018-09-02T11:42:48Z</time>
      </trkpt>
      <trkpt lat="43.78319" lon="3.75679">
        <ele>218.02354194895</ele>
        <time>2018-09-02T11:43:02Z</time>
      </trkpt>
      <trkpt lat="43.78317" lon="3.75668">
        <ele>218.02317961401</ele>
        <time>2018-09-02T11:43:08Z</time>
      </trkpt>
      <trkpt lat="43.78315" lon="3.75658">
        <ele>220.02282176312</ele>
        <time>2018-09-02T11:43:15Z</time>
      </trkpt>
      <trkpt lat="43.78314" lon="3.75646">
        <ele>219.02240185627</ele>
        <time>2018-09-02T11:43:22Z</time>
      </trkpt>
      <trkpt lat="43.78313" lon="3.75634">
        <ele>221.02199550167</ele>
        <time>2018-09-02T11:43:29Z</time>
      </trkpt>
      <trkpt lat="43.7831" lon="3.75624">
        <ele>220.02164509317</ele>
        <time>2018-09-02T11:43:36Z</time>
      </trkpt>
      <trkpt lat="43.78306" lon="3.75614">
        <ele>218.02132394963</ele>
        <time>2018-09-02T11:43:44Z</time>
      </trkpt>
      <trkpt lat="43.78302" lon="3.75604">
        <ele>217.02096167573</ele>
        <time>2018-09-02T11:43:53Z</time>
      </trkpt>
      <trkpt lat="43.78297" lon="3.75595">
        <ele>217.02066462169</ele>
        <time>2018-09-02T11:43:59Z</time>
      </trkpt>
      <trkpt lat="43.78289" lon="3.75589">
        <ele>217.02046860395</ele>
        <time>2018-09-02T11:44:07Z</time>
      </trkpt>
      <trkpt lat="43.78282" lon="3.75585">
        <ele>218.02033488128</ele>
        <time>2018-09-02T11:44:14Z</time>
      </trkpt>
      <trkpt lat="43.78275" lon="3.75578">
        <ele>216.02008669607</ele>
        <time>2018-09-02T11:44:20Z</time>
      </trkpt>
      <trkpt lat="43.78268" lon="3.7557">
        <ele>218.01981636124</ele>
        <time>2018-09-02T11:44:27Z</time>
      </trkpt>
      <trkpt lat="43.78262" lon="3.75561">
        <ele>220.01951949101</ele>
        <time>2018-09-02T11:44:36Z</time>
      </trkpt>
      <trkpt lat="43.78257" lon="3.75552">
        <ele>218.01919431266</ele>
        <time>2018-09-02T11:44:43Z</time>
      </trkpt>
      <trkpt lat="43.7825" lon="3.75545">
        <ele>218.01896970358</ele>
        <time>2018-09-02T11:44:50Z</time>
      </trkpt>
      <trkpt lat="43.78244" lon="3.75537">
        <ele>219.01868785476</ele>
        <time>2018-09-02T11:44:56Z</time>
      </trkpt>
      <trkpt lat="43.78237" lon="3.7553">
        <ele>222.01843756202</ele>
        <time>2018-09-02T11:45:03Z</time>
      </trkpt>
      <trkpt lat="43.7823" lon="3.75522">
        <ele>222.01817986648</ele>
        <time>2018-09-02T11:45:11Z</time>
      </trkpt>
      <trkpt lat="43.78226" lon="3.75513">
        <ele>222.01787496426</ele>
        <time>2018-09-02T11:45:18Z</time>
      </trkpt>
      <trkpt lat="43.78221" lon="3.75503">
        <ele>221.01753572863</ele>
        <time>2018-09-02T11:45:25Z</time>
      </trkpt>
      <trkpt lat="43.78219" lon="3.75492">
        <ele>222.01713466098</ele>
        <time>2018-09-02T11:45:32Z</time>
      </trkpt>
      <trkpt lat="43.7822" lon="3.75481">
        <ele>221.01676342722</ele>
        <time>2018-09-02T11:45:39Z</time>
      </trkpt>
      <trkpt lat="43.78218" lon="3.75469">
        <ele>220.01634494926</ele>
        <time>2018-09-02T11:45:46Z</time>
      </trkpt>
      <trkpt lat="43.78215" lon="3.75458">
        <ele>222.01596401323</ele>
        <time>2018-09-02T11:45:53Z</time>
      </trkpt>
      <trkpt lat="43.78212" lon="3.75448">
        <ele>223.01560087628</ele>
        <time>2018-09-02T11:46:00Z</time>
      </trkpt>
      <trkpt lat="43.78209" lon="3.75437">
        <ele>223.01524633717</ele>
        <time>2018-09-02T11:46:06Z</time>
      </trkpt>
      <trkpt lat="43.78204" lon="3.75429">
        <ele>223.01496171977</ele>
        <time>2018-09-02T11:46:15Z</time>
      </trkpt>
      <trkpt lat="43.78198" lon="3.75421">
        <ele>223.01468270326</ele>
        <time>2018-09-02T11:46:22Z</time>
      </trkpt>
      <trkpt lat="43.78191" lon="3.75414">
        <ele>223.01443218454</ele>
        <time>2018-09-02T11:46:31Z</time>
      </trkpt>
      <trkpt lat="43.78185" lon="3.75404">
        <ele>224.01409767944</ele>
        <time>2018-09-02T11:46:39Z</time>
      </trkpt>
      <trkpt lat="43.78177" lon="3.75399">
        <ele>224.01392246247</ele>
        <time>2018-09-02T11:46:45Z</time>
      </trkpt>
      <trkpt lat="43.78169" lon="3.75395">
        <ele>225.01379297351</ele>
        <time>2018-09-02T11:46:53Z</time>
      </trkpt>
      <trkpt lat="43.78162" lon="3.75394">
        <ele>226.01375139419</ele>
        <time>2018-09-02T11:46:58Z</time>
      </trkpt>
      <trkpt lat="43.78154" lon="3.75392">
        <ele>225.01368884686</ele>
        <time>2018-09-02T11:47:04Z</time>
      </trkpt>
      <trkpt lat="43.78147" lon="3.75388">
        <ele>226.01357709173</ele>
        <time>2018-09-02T11:47:10Z</time>
      </trkpt>
      <trkpt lat="43.78139" lon="3.75383">
        <ele>225.01339405074</ele>
        <time>2018-09-02T11:47:18Z</time>
      </trkpt>
      <trkpt lat="43.78131" lon="3.7538">
        <ele>228.01330555649</ele>
        <time>2018-09-02T11:47:36Z</time>
      </trkpt>
      <trkpt lat="43.78123" lon="3.75374">
        <ele>228.01309671426</ele>
        <time>2018-09-02T11:47:52Z</time>
      </trkpt>
      <trkpt lat="43.78108" lon="3.75368">
        <ele>231.01287856287</ele>
        <time>2018-09-02T11:48:06Z</time>
      </trkpt>
      <trkpt lat="43.78102" lon="3.75361">
        <ele>235.01263986507</ele>
        <time>2018-09-02T11:48:21Z</time>
      </trkpt>
      <trkpt lat="43.78098" lon="3.7535">
        <ele>232.01226816823</ele>
        <time>2018-09-02T11:48:29Z</time>
      </trkpt>
      <trkpt lat="43.781" lon="3.75339">
        <ele>231.01187940547</ele>
        <time>2018-09-02T11:48:36Z</time>
      </trkpt>
      <trkpt lat="43.78103" lon="3.7533">
        <ele>233.01155562444</ele>
        <time>2018-09-02T11:48:43Z</time>
      </trkpt>
      <trkpt lat="43.78104" lon="3.75318">
        <ele>234.01114561746</ele>
        <time>2018-09-02T11:48:49Z</time>
      </trkpt>
      <trkpt lat="43.78104" lon="3.75306">
        <ele>234.01072244895</ele>
        <time>2018-09-02T11:48:56Z</time>
      </trkpt>
      <trkpt lat="43.78106" lon="3.75294">
        <ele>237.01029752853</ele>
        <time>2018-09-02T11:49:04Z</time>
      </trkpt>
      <trkpt lat="43.78113" lon="3.75285">
        <ele>234.00998966813</ele>
        <time>2018-09-02T11:49:10Z</time>
      </trkpt>
      <trkpt lat="43.7812" lon="3.75278">
        <ele>234.0097270237</ele>
        <time>2018-09-02T11:49:17Z</time>
      </trkpt>
      <trkpt lat="43.78126" lon="3.7527">
        <ele>236.00944686378</ele>
        <time>2018-09-02T11:49:26Z</time>
      </trkpt>
      <trkpt lat="43.78132" lon="3.75263">
        <ele>238.00920121452</ele>
        <time>2018-09-02T11:49:33Z</time>
      </trkpt>
      <trkpt lat="43.7814" lon="3.75258">
        <ele>241.0090130997</ele>
        <time>2018-09-02T11:49:39Z</time>
      </trkpt>
      <trkpt lat="43.78148" lon="3.75257">
        <ele>242.00897826575</ele>
        <time>2018-09-02T11:49:45Z</time>
      </trkpt>
      <trkpt lat="43.78156" lon="3.75255">
        <ele>242.00892612411</ele>
        <time>2018-09-02T11:49:52Z</time>
      </trkpt>
      <trkpt lat="43.78161" lon="3.75246">
        <ele>242.00858806021</ele>
        <time>2018-09-02T11:50:07Z</time>
      </trkpt>
      <trkpt lat="43.78156" lon="3.75236">
        <ele>247.00824825778</ele>
        <time>2018-09-02T11:50:18Z</time>
      </trkpt>
      <trkpt lat="43.78164" lon="3.75242">
        <ele>246.00845380961</ele>
        <time>2018-09-02T11:50:40Z</time>
      </trkpt>
      <trkpt lat="43.78172" lon="3.75246">
        <ele>242.00859173032</ele>
        <time>2018-09-02T11:50:49Z</time>
      </trkpt>
      <trkpt lat="43.7818" lon="3.75243">
        <ele>240.00849879564</ele>
        <time>2018-09-02T11:50:58Z</time>
      </trkpt>
      <trkpt lat="43.78188" lon="3.75239">
        <ele>240.0083308661</ele>
        <time>2018-09-02T11:51:07Z</time>
      </trkpt>
      <trkpt lat="43.78181" lon="3.75245">
        <ele>238.00853469175</ele>
        <time>2018-09-02T11:51:35Z</time>
      </trkpt>
      <trkpt lat="43.78172" lon="3.75244">
        <ele>239.00850704836</ele>
        <time>2018-09-02T11:51:43Z</time>
      </trkpt>
      <trkpt lat="43.78173" lon="3.75233">
        <ele>239.00812648281</ele>
        <time>2018-09-02T11:51:51Z</time>
      </trkpt>
      <trkpt lat="43.78173" lon="3.75221">
        <ele>240.00773116226</ele>
        <time>2018-09-02T11:51:58Z</time>
      </trkpt>
      <trkpt lat="43.78177" lon="3.75211">
        <ele>242.0073729147</ele>
        <time>2018-09-02T11:52:06Z</time>
      </trkpt>
      <trkpt lat="43.78179" lon="3.75201">
        <ele>241.0070035313</ele>
        <time>2018-09-02T11:52:12Z</time>
      </trkpt>
      <trkpt lat="43.78175" lon="3.75189">
        <ele>241.0066062219</ele>
        <time>2018-09-02T11:52:17Z</time>
      </trkpt>
      <trkpt lat="43.78173" lon="3.75177">
        <ele>241.00619604562</ele>
        <time>2018-09-02T11:52:28Z</time>
      </trkpt>
      <trkpt lat="43.78173" lon="3.75166">
        <ele>240.00578289195</ele>
        <time>2018-09-02T11:52:38Z</time>
      </trkpt>
      <trkpt lat="43.78167" lon="3.75159">
        <ele>237.00556195254</ele>
        <time>2018-09-02T11:52:46Z</time>
      </trkpt>
      <trkpt lat="43.78161" lon="3.7515">
        <ele>235.00524126976</ele>
        <time>2018-09-02T11:52:58Z</time>
      </trkpt>
      <trkpt lat="43.78153" lon="3.75148">
        <ele>236.00515621375</ele>
        <time>2018-09-02T11:53:08Z</time>
      </trkpt>
      <trkpt lat="43.78145" lon="3.75145">
        <ele>235.00505133061</ele>
        <time>2018-09-02T11:53:16Z</time>
      </trkpt>
      <trkpt lat="43.78139" lon="3.75137">
        <ele>237.00479476018</ele>
        <time>2018-09-02T11:53:23Z</time>
      </trkpt>
      <trkpt lat="43.78133" lon="3.7513">
        <ele>237.00453831547</ele>
        <time>2018-09-02T11:53:31Z</time>
      </trkpt>
      <trkpt lat="43.78125" lon="3.75124">
        <ele>236.00433217968</ele>
        <time>2018-09-02T11:53:39Z</time>
      </trkpt>
      <trkpt lat="43.78122" lon="3.75116">
        <ele>236.0040512487</ele>
        <time>2018-09-02T11:53:51Z</time>
      </trkpt>
      <trkpt lat="43.78116" lon="3.75106">
        <ele>236.00372470518</ele>
        <time>2018-09-02T11:54:03Z</time>
      </trkpt>
      <trkpt lat="43.78111" lon="3.751">
        <ele>233.00350343584</ele>
        <time>2018-09-02T11:54:12Z</time>
      </trkpt>
      <trkpt lat="43.78106" lon="3.75095">
        <ele>232.00333029828</ele>
        <time>2018-09-02T11:54:18Z</time>
      </trkpt>
      <trkpt lat="43.781" lon="3.75088">
        <ele>233.00309779366</ele>
        <time>2018-09-02T11:54:21Z</time>
      </trkpt>
      <trkpt lat="43.78094" lon="3.75083">
        <ele>234.00289300397</ele>
        <time>2018-09-02T11:54:26Z</time>
      </trkpt>
      <trkpt lat="43.78086" lon="3.75078">
        <ele>230.0027300083</ele>
        <time>2018-09-02T11:54:34Z</time>
      </trkpt>
      <trkpt lat="43.78078" lon="3.75077">
        <ele>230.00270337684</ele>
        <time>2018-09-02T11:54:42Z</time>
      </trkpt>
      <trkpt lat="43.78069" lon="3.75077">
        <ele>229.00270035027</ele>
        <time>2018-09-02T11:54:49Z</time>
      </trkpt>
      <trkpt lat="43.78067" lon="3.75065">
        <ele>228.00229588888</ele>
        <time>2018-09-02T11:54:57Z</time>
      </trkpt>
      <trkpt lat="43.78064" lon="3.75054">
        <ele>228.00190465484</ele>
        <time>2018-09-02T11:55:05Z</time>
      </trkpt>
      <trkpt lat="43.78065" lon="3.75042">
        <ele>229.00148746062</ele>
        <time>2018-09-02T11:55:13Z</time>
      </trkpt>
      <trkpt lat="43.78066" lon="3.75032">
        <ele>231.00113261217</ele>
        <time>2018-09-02T11:55:20Z</time>
      </trkpt>
      <trkpt lat="43.7807" lon="3.75022">
        <ele>231.00076593792</ele>
        <time>2018-09-02T11:55:27Z</time>
      </trkpt>
      <trkpt lat="43.78075" lon="3.75013">
        <ele>232.0004423222</ele>
        <time>2018-09-02T11:55:34Z</time>
      </trkpt>
      <trkpt lat="43.78082" lon="3.75009">
        <ele>232.0003210781</ele>
        <time>2018-09-02T11:55:41Z</time>
      </trkpt>
      <trkpt lat="43.7809" lon="3.75005">
        <ele>232.00016993388</ele>
        <time>2018-09-02T11:55:47Z</time>
      </trkpt>
      <trkpt lat="43.78098" lon="3.75002">
        <ele>233.00006442461</ele>
        <time>2018-09-02T11:55:56Z</time>
      </trkpt>
      <trkpt lat="43.78105" lon="3.74998">
        <ele>232.9999887695</ele>
        <time>2018-09-02T11:56:02Z</time>
      </trkpt>
      <trkpt lat="43.78112" lon="3.74992">
        <ele>232.99995865031</ele>
        <time>2018-09-02T11:56:09Z</time>
      </trkpt>
      <trkpt lat="43.78119" lon="3.74987">
        <ele>233.99993270292</ele>
        <time>2018-09-02T11:56:17Z</time>
      </trkpt>
      <trkpt lat="43.78126" lon="3.74979">
        <ele>232.99989274253</ele>
        <time>2018-09-02T11:56:29Z</time>
      </trkpt>
      <trkpt lat="43.7813" lon="3.74969">
        <ele>230.99984426028</ele>
        <time>2018-09-02T11:56:36Z</time>
      </trkpt>
      <trkpt lat="43.78135" lon="3.74961">
        <ele>230.99980213485</ele>
        <time>2018-09-02T11:56:44Z</time>
      </trkpt>
      <trkpt lat="43.78141" lon="3.74952">
        <ele>230.99975955144</ele>
        <time>2018-09-02T11:56:51Z</time>
      </trkpt>
      <trkpt lat="43.78148" lon="3.74945">
        <ele>228.99972086747</ele>
        <time>2018-09-02T11:56:57Z</time>
      </trkpt>
      <trkpt lat="43.78153" lon="3.74937">
        <ele>227.99968125997</ele>
        <time>2018-09-02T11:57:03Z</time>
      </trkpt>
      <trkpt lat="43.78159" lon="3.7493">
        <ele>227.99964443111</ele>
        <time>2018-09-02T11:57:08Z</time>
      </trkpt>
      <trkpt lat="43.78165" lon="3.74921">
        <ele>226.99960074545</ele>
        <time>2018-09-02T11:57:15Z</time>
      </trkpt>
      <trkpt lat="43.78171" lon="3.74913">
        <ele>225.99955701111</ele>
        <time>2018-09-02T11:57:22Z</time>
      </trkpt>
      <trkpt lat="43.78177" lon="3.74903">
        <ele>224.99950623809</ele>
        <time>2018-09-02T11:57:30Z</time>
      </trkpt>
      <trkpt lat="43.78181" lon="3.74893">
        <ele>224.9994547086</ele>
        <time>2018-09-02T11:57:36Z</time>
      </trkpt>
      <trkpt lat="43.78185" lon="3.74884">
        <ele>224.99940819425</ele>
        <time>2018-09-02T11:57:42Z</time>
      </trkpt>
      <trkpt lat="43.78188" lon="3.74873">
        <ele>225.99934965522</ele>
        <time>2018-09-02T11:57:48Z</time>
      </trkpt>
      <trkpt lat="43.78189" lon="3.74862">
        <ele>228.99929355228</ele>
        <time>2018-09-02T11:57:55Z</time>
      </trkpt>
      <trkpt lat="43.7819" lon="3.7485">
        <ele>226.99923532145</ele>
        <time>2018-09-02T11:58:02Z</time>
      </trkpt>
      <trkpt lat="43.78192" lon="3.74839">
        <ele>227.9991764819</ele>
        <time>2018-09-02T11:58:09Z</time>
      </trkpt>
      <trkpt lat="43.78193" lon="3.74827">
        <ele>228.99911532054</ele>
        <time>2018-09-02T11:58:36Z</time>
      </trkpt>
      <trkpt lat="43.78192" lon="3.74815">
        <ele>227.99905262527</ele>
        <time>2018-09-02T11:58:42Z</time>
      </trkpt>
      <trkpt lat="43.78188" lon="3.74805">
        <ele>226.99900257042</ele>
        <time>2018-09-02T11:58:48Z</time>
      </trkpt>
      <trkpt lat="43.78184" lon="3.74795">
        <ele>225.99895306058</ele>
        <time>2018-09-02T11:58:56Z</time>
      </trkpt>
      <trkpt lat="43.78181" lon="3.74784">
        <ele>223.99890252554</ele>
        <time>2018-09-02T11:59:04Z</time>
      </trkpt>
      <trkpt lat="43.78177" lon="3.74773">
        <ele>223.99884711423</ele>
        <time>2018-09-02T11:59:13Z</time>
      </trkpt>
      <trkpt lat="43.78173" lon="3.74764">
        <ele>222.99880006346</ele>
        <time>2018-09-02T11:59:20Z</time>
      </trkpt>
      <trkpt lat="43.78169" lon="3.74754">
        <ele>222.99875173335</ele>
        <time>2018-09-02T11:59:27Z</time>
      </trkpt>
      <trkpt lat="43.78164" lon="3.74743">
        <ele>221.99870085234</ele>
        <time>2018-09-02T11:59:34Z</time>
      </trkpt>
      <trkpt lat="43.78158" lon="3.74736">
        <ele>221.99866399378</ele>
        <time>2018-09-02T11:59:39Z</time>
      </trkpt>
      <trkpt lat="43.78156" lon="3.74724">
        <ele>222.9986078993</ele>
        <time>2018-09-02T11:59:46Z</time>
      </trkpt>
      <trkpt lat="43.78152" lon="3.74716">
        <ele>221.99856908263</ele>
        <time>2018-09-02T11:59:53Z</time>
      </trkpt>
      <trkpt lat="43.78146" lon="3.74711">
        <ele>221.99854443747</ele>
        <time>2018-09-02T11:59:59Z</time>
      </trkpt>
      <trkpt lat="43.78139" lon="3.74705">
        <ele>223.99851934041</ele>
        <time>2018-09-02T12:00:04Z</time>
      </trkpt>
      <trkpt lat="43.78138" lon="3.74695">
        <ele>222.99846623991</ele>
        <time>2018-09-02T12:00:10Z</time>
      </trkpt>
      <trkpt lat="43.78137" lon="3.74684">
        <ele>222.99841267988</ele>
        <time>2018-09-02T12:00:16Z</time>
      </trkpt>
      <trkpt lat="43.78135" lon="3.74673">
        <ele>221.9983586426</ele>
        <time>2018-09-02T12:00:21Z</time>
      </trkpt>
      <trkpt lat="43.78132" lon="3.74662">
        <ele>220.99830813493</ele>
        <time>2018-09-02T12:00:28Z</time>
      </trkpt>
      <trkpt lat="43.7813" lon="3.74651">
        <ele>220.99825232048</ele>
        <time>2018-09-02T12:00:34Z</time>
      </trkpt>
      <trkpt lat="43.78127" lon="3.7464">
        <ele>221.99819775976</ele>
        <time>2018-09-02T12:00:40Z</time>
      </trkpt>
      <trkpt lat="43.78126" lon="3.74629">
        <ele>221.99814514904</ele>
        <time>2018-09-02T12:00:47Z</time>
      </trkpt>
      <trkpt lat="43.78123" lon="3.74618">
        <ele>221.99808893155</ele>
        <time>2018-09-02T12:00:54Z</time>
      </trkpt>
      <trkpt lat="43.78123" lon="3.74606">
        <ele>220.99802956643</ele>
        <time>2018-09-02T12:01:00Z</time>
      </trkpt>
      <trkpt lat="43.78123" lon="3.74594">
        <ele>219.99797133348</ele>
        <time>2018-09-02T12:01:06Z</time>
      </trkpt>
      <trkpt lat="43.78124" lon="3.74582">
        <ele>219.99791105742</ele>
        <time>2018-09-02T12:01:12Z</time>
      </trkpt>
      <trkpt lat="43.78123" lon="3.7457">
        <ele>219.99785363949</ele>
        <time>2018-09-02T12:01:20Z</time>
      </trkpt>
      <trkpt lat="43.78123" lon="3.74561">
        <ele>219.99780621988</ele>
        <time>2018-09-02T12:01:26Z</time>
      </trkpt>
      <trkpt lat="43.78121" lon="3.7455">
        <ele>220.99775259287</ele>
        <time>2018-09-02T12:01:31Z</time>
      </trkpt>
      <trkpt lat="43.78123" lon="3.74539">
        <ele>220.99769543657</ele>
        <time>2018-09-02T12:01:36Z</time>
      </trkpt>
      <trkpt lat="43.78127" lon="3.74528">
        <ele>222.99763741264</ele>
        <time>2018-09-02T12:01:43Z</time>
      </trkpt>
      <trkpt lat="43.78129" lon="3.74517">
        <ele>223.9975830482</ele>
        <time>2018-09-02T12:01:49Z</time>
      </trkpt>
      <trkpt lat="43.78131" lon="3.74507">
        <ele>222.99752937581</ele>
        <time>2018-09-02T12:01:55Z</time>
      </trkpt>
      <trkpt lat="43.78134" lon="3.74495">
        <ele>223.99747000365</ele>
        <time>2018-09-02T12:02:01Z</time>
      </trkpt>
      <trkpt lat="43.78136" lon="3.74487">
        <ele>223.99742349062</ele>
        <time>2018-09-02T12:02:06Z</time>
      </trkpt>
      <trkpt lat="43.78138" lon="3.74475">
        <ele>222.99736205765</ele>
        <time>2018-09-02T12:02:13Z</time>
      </trkpt>
      <trkpt lat="43.78139" lon="3.74463">
        <ele>222.99730294673</ele>
        <time>2018-09-02T12:02:19Z</time>
      </trkpt>
      <trkpt lat="43.78139" lon="3.74451">
        <ele>221.9972419395</ele>
        <time>2018-09-02T12:02:27Z</time>
      </trkpt>
      <trkpt lat="43.78137" lon="3.7444">
        <ele>221.99718949779</ele>
        <time>2018-09-02T12:02:33Z</time>
      </trkpt>
      <trkpt lat="43.78136" lon="3.74428">
        <ele>221.99713027817</ele>
        <time>2018-09-02T12:02:40Z</time>
      </trkpt>
      <trkpt lat="43.78133" lon="3.74417">
        <ele>223.99707856671</ele>
        <time>2018-09-02T12:02:47Z</time>
      </trkpt>
      <trkpt lat="43.78131" lon="3.74405">
        <ele>223.99702116725</ele>
        <time>2018-09-02T12:02:53Z</time>
      </trkpt>
      <trkpt lat="43.78129" lon="3.74396">
        <ele>221.99697543441</ele>
        <time>2018-09-02T12:03:00Z</time>
      </trkpt>
      <trkpt lat="43.78126" lon="3.74384">
        <ele>221.99692118288</ele>
        <time>2018-09-02T12:03:05Z</time>
      </trkpt>
      <trkpt lat="43.78122" lon="3.74373">
        <ele>221.99686810384</ele>
        <time>2018-09-02T12:03:13Z</time>
      </trkpt>
      <trkpt lat="43.78121" lon="3.74362">
        <ele>220.99681549294</ele>
        <time>2018-09-02T12:03:23Z</time>
      </trkpt>
      <trkpt lat="43.78119" lon="3.7435">
        <ele>220.99675740428</ele>
        <time>2018-09-02T12:03:31Z</time>
      </trkpt>
      <trkpt lat="43.78112" lon="3.74343">
        <ele>222.99672641111</ele>
        <time>2018-09-02T12:03:44Z</time>
      </trkpt>
      <trkpt lat="43.78104" lon="3.74343">
        <ele>225.9967368619</ele>
        <time>2018-09-02T12:04:01Z</time>
      </trkpt>
      <trkpt lat="43.78088" lon="3.74339">
        <ele>220.99673493547</ele>
        <time>2018-09-02T12:04:15Z</time>
      </trkpt>
      <trkpt lat="43.7808" lon="3.74337">
        <ele>219.99673163314</ele>
        <time>2018-09-02T12:04:29Z</time>
      </trkpt>
      <trkpt lat="43.78073" lon="3.74332">
        <ele>218.99671758659</ele>
        <time>2018-09-02T12:04:36Z</time>
      </trkpt>
      <trkpt lat="43.78065" lon="3.74327">
        <ele>216.99670043411</ele>
        <time>2018-09-02T12:04:52Z</time>
      </trkpt>
      <trkpt lat="43.78058" lon="3.74322">
        <ele>216.99668323019</ele>
        <time>2018-09-02T12:05:01Z</time>
      </trkpt>
      <trkpt lat="43.78053" lon="3.74314">
        <ele>215.99664951155</ele>
        <time>2018-09-02T12:05:11Z</time>
      </trkpt>
      <trkpt lat="43.78048" lon="3.74307">
        <ele>215.99661969212</ele>
        <time>2018-09-02T12:05:19Z</time>
      </trkpt>
      <trkpt lat="43.7804" lon="3.74299">
        <ele>215.99659133785</ele>
        <time>2018-09-02T12:05:27Z</time>
      </trkpt>
      <trkpt lat="43.78033" lon="3.74294">
        <ele>213.99657502781</ele>
        <time>2018-09-02T12:05:35Z</time>
      </trkpt>
      <trkpt lat="43.78027" lon="3.74293">
        <ele>211.99657504525</ele>
        <time>2018-09-02T12:05:42Z</time>
      </trkpt>
      <trkpt lat="43.78019" lon="3.74291">
        <ele>210.9965738881</ele>
        <time>2018-09-02T12:05:50Z</time>
      </trkpt>
      <trkpt lat="43.7801" lon="3.7429">
        <ele>213.99657991673</ele>
        <time>2018-09-02T12:06:03Z</time>
      </trkpt>
      <trkpt lat="43.78002" lon="3.74292">
        <ele>212.9966012698</ele>
        <time>2018-09-02T12:06:15Z</time>
      </trkpt>
      <trkpt lat="43.77994" lon="3.74291">
        <ele>213.99660544143</ele>
        <time>2018-09-02T12:06:23Z</time>
      </trkpt>
      <trkpt lat="43.77986" lon="3.74294">
        <ele>210.99662614275</ele>
        <time>2018-09-02T12:06:46Z</time>
      </trkpt>
      <trkpt lat="43.7797" lon="3.74296">
        <ele>206.99665277673</ele>
        <time>2018-09-02T12:07:01Z</time>
      </trkpt>
      <trkpt lat="43.77962" lon="3.74299">
        <ele>208.99667765406</ele>
        <time>2018-09-02T12:07:17Z</time>
      </trkpt>
      <trkpt lat="43.77953" lon="3.743">
        <ele>207.99669377415</ele>
        <time>2018-09-02T12:07:24Z</time>
      </trkpt>
      <trkpt lat="43.77946" lon="3.74304">
        <ele>210.99671781087</ele>
        <time>2018-09-02T12:07:33Z</time>
      </trkpt>
      <trkpt lat="43.77938" lon="3.74304">
        <ele>208.99672822449</ele>
        <time>2018-09-02T12:07:39Z</time>
      </trkpt>
      <trkpt lat="43.7793" lon="3.74306">
        <ele>209.996746002</ele>
        <time>2018-09-02T12:07:45Z</time>
      </trkpt>
      <trkpt lat="43.77923" lon="3.74308">
        <ele>206.99676569159</ele>
        <time>2018-09-02T12:07:52Z</time>
      </trkpt>
      <trkpt lat="43.77915" lon="3.74311">
        <ele>205.99678561689</ele>
        <time>2018-09-02T12:07:59Z</time>
      </trkpt>
      <trkpt lat="43.77907" lon="3.74313">
        <ele>204.99680639503</ele>
        <time>2018-09-02T12:08:04Z</time>
      </trkpt>
      <trkpt lat="43.77899" lon="3.74312">
        <ele>204.99680697455</ele>
        <time>2018-09-02T12:08:12Z</time>
      </trkpt>
      <trkpt lat="43.77891" lon="3.74307">
        <ele>206.99679424738</ele>
        <time>2018-09-02T12:08:18Z</time>
      </trkpt>
      <trkpt lat="43.77883" lon="3.74302">
        <ele>209.99677816075</ele>
        <time>2018-09-02T12:08:24Z</time>
      </trkpt>
      <trkpt lat="43.77877" lon="3.74294">
        <ele>211.99674979751</ele>
        <time>2018-09-02T12:08:32Z</time>
      </trkpt>
      <trkpt lat="43.77871" lon="3.74287">
        <ele>211.9967255562</ele>
        <time>2018-09-02T12:08:39Z</time>
      </trkpt>
      <trkpt lat="43.77865" lon="3.74278">
        <ele>213.99669145096</ele>
        <time>2018-09-02T12:08:49Z</time>
      </trkpt>
      <trkpt lat="43.77858" lon="3.74284">
        <ele>211.99672662798</ele>
        <time>2018-09-02T12:09:07Z</time>
      </trkpt>
      <trkpt lat="43.7785" lon="3.74289">
        <ele>212.99675832869</ele>
        <time>2018-09-02T12:09:15Z</time>
      </trkpt>
      <trkpt lat="43.77842" lon="3.74294">
        <ele>212.99678850669</ele>
        <time>2018-09-02T12:09:22Z</time>
      </trkpt>
      <trkpt lat="43.77834" lon="3.74296">
        <ele>212.99680927416</ele>
        <time>2018-09-02T12:09:29Z</time>
      </trkpt>
      <trkpt lat="43.77825" lon="3.74299">
        <ele>212.99683069882</ele>
        <time>2018-09-02T12:09:36Z</time>
      </trkpt>
      <trkpt lat="43.77818" lon="3.74304">
        <ele>213.99686246355</ele>
        <time>2018-09-02T12:09:44Z</time>
      </trkpt>
      <trkpt lat="43.77813" lon="3.74313">
        <ele>213.99690884851</ele>
        <time>2018-09-02T12:09:52Z</time>
      </trkpt>
      <trkpt lat="43.77814" lon="3.74325">
        <ele>213.99696079646</ele>
        <time>2018-09-02T12:09:59Z</time>
      </trkpt>
      <trkpt lat="43.77817" lon="3.74337">
        <ele>212.99701243222</ele>
        <time>2018-09-02T12:10:07Z</time>
      </trkpt>
      <trkpt lat="43.7782" lon="3.74348">
        <ele>212.99706019767</ele>
        <time>2018-09-02T12:10:13Z</time>
      </trkpt>
      <trkpt lat="43.77822" lon="3.7436">
        <ele>212.99710914045</ele>
        <time>2018-09-02T12:10:21Z</time>
      </trkpt>
      <trkpt lat="43.77825" lon="3.7437">
        <ele>211.99715398213</ele>
        <time>2018-09-02T12:10:27Z</time>
      </trkpt>
      <trkpt lat="43.77827" lon="3.74382">
        <ele>212.99720362446</ele>
        <time>2018-09-02T12:10:33Z</time>
      </trkpt>
      <trkpt lat="43.7783" lon="3.74392">
        <ele>211.99724889235</ele>
        <time>2018-09-02T12:10:41Z</time>
      </trkpt>
      <trkpt lat="43.77831" lon="3.74403">
        <ele>212.99729771571</ele>
        <time>2018-09-02T12:10:48Z</time>
      </trkpt>
      <trkpt lat="43.77828" lon="3.74414">
        <ele>215.99734936509</ele>
        <time>2018-09-02T12:10:55Z</time>
      </trkpt>
      <trkpt lat="43.77825" lon="3.74426">
        <ele>216.99740460312</ele>
        <time>2018-09-02T12:11:06Z</time>
      </trkpt>
      <trkpt lat="43.77824" lon="3.74438">
        <ele>217.99745946577</ele>
        <time>2018-09-02T12:11:16Z</time>
      </trkpt>
      <trkpt lat="43.77817" lon="3.74445">
        <ele>217.99749778914</ele>
        <time>2018-09-02T12:11:25Z</time>
      </trkpt>
      <trkpt lat="43.77811" lon="3.74452">
        <ele>216.99753651877</ele>
        <time>2018-09-02T12:11:35Z</time>
      </trkpt>
      <trkpt lat="43.77807" lon="3.74463">
        <ele>217.99758589079</ele>
        <time>2018-09-02T12:11:42Z</time>
      </trkpt>
      <trkpt lat="43.77802" lon="3.7447">
        <ele>217.99762621218</ele>
        <time>2018-09-02T12:11:50Z</time>
      </trkpt>
      <trkpt lat="43.77795" lon="3.74476">
        <ele>217.99765625685</ele>
        <time>2018-09-02T12:11:56Z</time>
      </trkpt>
      <trkpt lat="43.7779" lon="3.74485">
        <ele>217.99770083084</ele>
        <time>2018-09-02T12:12:03Z</time>
      </trkpt>
      <trkpt lat="43.77785" lon="3.74494">
        <ele>217.99774347956</ele>
        <time>2018-09-02T12:12:09Z</time>
      </trkpt>
      <trkpt lat="43.77779" lon="3.74502">
        <ele>219.99778725081</ele>
        <time>2018-09-02T12:12:16Z</time>
      </trkpt>
      <trkpt lat="43.77775" lon="3.74513">
        <ele>219.99783624068</ele>
        <time>2018-09-02T12:12:24Z</time>
      </trkpt>
      <trkpt lat="43.7777" lon="3.74523">
        <ele>220.99788353648</ele>
        <time>2018-09-02T12:12:31Z</time>
      </trkpt>
      <trkpt lat="43.77765" lon="3.74532">
        <ele>220.99792960941</ele>
        <time>2018-09-02T12:12:39Z</time>
      </trkpt>
      <trkpt lat="43.7776" lon="3.74542">
        <ele>220.9979754301</ele>
        <time>2018-09-02T12:12:45Z</time>
      </trkpt>
      <trkpt lat="43.77755" lon="3.74549">
        <ele>221.99801359604</ele>
        <time>2018-09-02T12:12:51Z</time>
      </trkpt>
      <trkpt lat="43.77748" lon="3.74557">
        <ele>221.99805083443</ele>
        <time>2018-09-02T12:12:59Z</time>
      </trkpt>
      <trkpt lat="43.77741" lon="3.74562">
        <ele>222.99807954221</ele>
        <time>2018-09-02T12:13:05Z</time>
      </trkpt>
      <trkpt lat="43.77733" lon="3.74568">
        <ele>222.99811039549</ele>
        <time>2018-09-02T12:13:12Z</time>
      </trkpt>
      <trkpt lat="43.77726" lon="3.74573">
        <ele>221.9981377429</ele>
        <time>2018-09-02T12:13:18Z</time>
      </trkpt>
      <trkpt lat="43.77718" lon="3.74578">
        <ele>222.99816241703</ele>
        <time>2018-09-02T12:13:25Z</time>
      </trkpt>
      <trkpt lat="43.7771" lon="3.74583">
        <ele>222.99819057455</ele>
        <time>2018-09-02T12:13:33Z</time>
      </trkpt>
      <trkpt lat="43.77703" lon="3.74587">
        <ele>222.9982152261</ele>
        <time>2018-09-02T12:13:39Z</time>
      </trkpt>
      <trkpt lat="43.77696" lon="3.74594">
        <ele>223.99824785415</ele>
        <time>2018-09-02T12:13:45Z</time>
      </trkpt>
      <trkpt lat="43.77689" lon="3.74601">
        <ele>223.99828123708</ele>
        <time>2018-09-02T12:13:53Z</time>
      </trkpt>
      <trkpt lat="43.77682" lon="3.74606">
        <ele>222.99830878067</ele>
        <time>2018-09-02T12:14:01Z</time>
      </trkpt>
      <trkpt lat="43.77674" lon="3.74608">
        <ele>222.99832137289</ele>
        <time>2018-09-02T12:14:08Z</time>
      </trkpt>
      <trkpt lat="43.77668" lon="3.74612">
        <ele>222.998345403</ele>
        <time>2018-09-02T12:14:14Z</time>
      </trkpt>
      <trkpt lat="43.77662" lon="3.74621">
        <ele>222.99838374173</ele>
        <time>2018-09-02T12:14:21Z</time>
      </trkpt>
      <trkpt lat="43.77656" lon="3.74629">
        <ele>223.99842346781</ele>
        <time>2018-09-02T12:14:29Z</time>
      </trkpt>
      <trkpt lat="43.77652" lon="3.74638">
        <ele>223.99846511216</ele>
        <time>2018-09-02T12:14:36Z</time>
      </trkpt>
      <trkpt lat="43.77645" lon="3.74647">
        <ele>225.99850443389</ele>
        <time>2018-09-02T12:14:44Z</time>
      </trkpt>
      <trkpt lat="43.7764" lon="3.74656">
        <ele>226.99854644409</ele>
        <time>2018-09-02T12:14:52Z</time>
      </trkpt>
      <trkpt lat="43.77635" lon="3.74665">
        <ele>228.9985890358</ele>
        <time>2018-09-02T12:15:00Z</time>
      </trkpt>
      <trkpt lat="43.7763" lon="3.74674">
        <ele>228.99862971536</ele>
        <time>2018-09-02T12:15:07Z</time>
      </trkpt>
      <trkpt lat="43.77624" lon="3.74682">
        <ele>229.9986628455</ele>
        <time>2018-09-02T12:15:15Z</time>
      </trkpt>
      <trkpt lat="43.77617" lon="3.74689">
        <ele>230.99869843804</ele>
        <time>2018-09-02T12:15:22Z</time>
      </trkpt>
      <trkpt lat="43.77613" lon="3.74698">
        <ele>230.99873774848</ele>
        <time>2018-09-02T12:15:30Z</time>
      </trkpt>
      <trkpt lat="43.77608" lon="3.74707">
        <ele>231.9987755576</ele>
        <time>2018-09-02T12:15:37Z</time>
      </trkpt>
      <trkpt lat="43.77603" lon="3.74717">
        <ele>231.99881921041</ele>
        <time>2018-09-02T12:15:45Z</time>
      </trkpt>
      <trkpt lat="43.77597" lon="3.74725">
        <ele>232.99885637139</ele>
        <time>2018-09-02T12:15:52Z</time>
      </trkpt>
      <trkpt lat="43.77592" lon="3.74733">
        <ele>233.99889408837</ele>
        <time>2018-09-02T12:15:59Z</time>
      </trkpt>
      <trkpt lat="43.77587" lon="3.74743">
        <ele>234.99893511938</ele>
        <time>2018-09-02T12:16:07Z</time>
      </trkpt>
      <trkpt lat="43.77582" lon="3.74751">
        <ele>234.99897126144</ele>
        <time>2018-09-02T12:16:14Z</time>
      </trkpt>
      <trkpt lat="43.77576" lon="3.74759">
        <ele>234.99900436922</ele>
        <time>2018-09-02T12:16:21Z</time>
      </trkpt>
      <trkpt lat="43.7757" lon="3.74766">
        <ele>235.99903708077</ele>
        <time>2018-09-02T12:16:27Z</time>
      </trkpt>
      <trkpt lat="43.77564" lon="3.74775">
        <ele>236.99907540652</ele>
        <time>2018-09-02T12:16:34Z</time>
      </trkpt>
      <trkpt lat="43.77558" lon="3.74783">
        <ele>237.99911074015</ele>
        <time>2018-09-02T12:16:41Z</time>
      </trkpt>
      <trkpt lat="43.77553" lon="3.7479">
        <ele>236.99914326033</ele>
        <time>2018-09-02T12:16:47Z</time>
      </trkpt>
      <trkpt lat="43.77548" lon="3.748">
        <ele>235.99918528645</ele>
        <time>2018-09-02T12:16:53Z</time>
      </trkpt>
      <trkpt lat="43.77543" lon="3.7481">
        <ele>235.99922618658</ele>
        <time>2018-09-02T12:17:00Z</time>
      </trkpt>
      <trkpt lat="43.7754" lon="3.74821">
        <ele>236.99927074825</ele>
        <time>2018-09-02T12:17:06Z</time>
      </trkpt>
      <trkpt lat="43.77535" lon="3.7483">
        <ele>236.99931113542</ele>
        <time>2018-09-02T12:17:14Z</time>
      </trkpt>
      <trkpt lat="43.77529" lon="3.74838">
        <ele>237.99934416483</ele>
        <time>2018-09-02T12:17:21Z</time>
      </trkpt>
      <trkpt lat="43.77524" lon="3.74846">
        <ele>238.99937766107</ele>
        <time>2018-09-02T12:17:27Z</time>
      </trkpt>
      <trkpt lat="43.77519" lon="3.74854">
        <ele>238.99941303607</ele>
        <time>2018-09-02T12:17:33Z</time>
      </trkpt>
      <trkpt lat="43.77513" lon="3.74862">
        <ele>238.99944494851</ele>
        <time>2018-09-02T12:17:38Z</time>
      </trkpt>
      <trkpt lat="43.77507" lon="3.7487">
        <ele>239.99947872283</ele>
        <time>2018-09-02T12:17:45Z</time>
      </trkpt>
      <trkpt lat="43.77502" lon="3.7488">
        <ele>239.99951889967</ele>
        <time>2018-09-02T12:17:52Z</time>
      </trkpt>
      <trkpt lat="43.77496" lon="3.74887">
        <ele>241.99955047642</ele>
        <time>2018-09-02T12:17:59Z</time>
      </trkpt>
      <trkpt lat="43.7749" lon="3.74895">
        <ele>242.99958219611</ele>
        <time>2018-09-02T12:18:07Z</time>
      </trkpt>
      <trkpt lat="43.77485" lon="3.74904">
        <ele>242.99961922155</ele>
        <time>2018-09-02T12:18:14Z</time>
      </trkpt>
      <trkpt lat="43.77478" lon="3.74912">
        <ele>242.9996525264</ele>
        <time>2018-09-02T12:18:22Z</time>
      </trkpt>
      <trkpt lat="43.7747" lon="3.74916">
        <ele>243.99966790509</ele>
        <time>2018-09-02T12:18:31Z</time>
      </trkpt>
      <trkpt lat="43.77462" lon="3.74916">
        <ele>242.99966785334</ele>
        <time>2018-09-02T12:18:39Z</time>
      </trkpt>
      <trkpt lat="43.77454" lon="3.74913">
        <ele>244.99965659213</ele>
        <time>2018-09-02T12:18:46Z</time>
      </trkpt>
      <trkpt lat="43.77446" lon="3.74906">
        <ele>245.99963332981</ele>
        <time>2018-09-02T12:18:53Z</time>
      </trkpt>
      <trkpt lat="43.7744" lon="3.74901">
        <ele>246.9996121697</ele>
        <time>2018-09-02T12:19:00Z</time>
      </trkpt>
      <trkpt lat="43.77433" lon="3.74894">
        <ele>248.9995888368</ele>
        <time>2018-09-02T12:19:06Z</time>
      </trkpt>
      <trkpt lat="43.77427" lon="3.74887">
        <ele>250.99955919633</ele>
        <time>2018-09-02T12:19:13Z</time>
      </trkpt>
      <trkpt lat="43.77422" lon="3.74878">
        <ele>250.99952803079</ele>
        <time>2018-09-02T12:19:20Z</time>
      </trkpt>
      <trkpt lat="43.77419" lon="3.74869">
        <ele>251.99949300136</ele>
        <time>2018-09-02T12:19:28Z</time>
      </trkpt>
      <trkpt lat="43.77413" lon="3.74861">
        <ele>252.99946197221</ele>
        <time>2018-09-02T12:19:33Z</time>
      </trkpt>
      <trkpt lat="43.77406" lon="3.74854">
        <ele>253.99943716536</ele>
        <time>2018-09-02T12:19:38Z</time>
      </trkpt>
      <trkpt lat="43.77399" lon="3.7485">
        <ele>253.99942306065</ele>
        <time>2018-09-02T12:19:43Z</time>
      </trkpt>
      <trkpt lat="43.77391" lon="3.74848">
        <ele>251.99941845013</ele>
        <time>2018-09-02T12:19:50Z</time>
      </trkpt>
      <trkpt lat="43.77383" lon="3.74842">
        <ele>250.99939874607</ele>
        <time>2018-09-02T12:20:00Z</time>
      </trkpt>
      <trkpt lat="43.77375" lon="3.74837">
        <ele>251.9993813463</ele>
        <time>2018-09-02T12:20:07Z</time>
      </trkpt>
      <trkpt lat="43.77368" lon="3.74831">
        <ele>252.99935904852</ele>
        <time>2018-09-02T12:20:14Z</time>
      </trkpt>
      <trkpt lat="43.77359" lon="3.7483">
        <ele>252.99935672713</ele>
        <time>2018-09-02T12:20:22Z</time>
      </trkpt>
      <trkpt lat="43.77353" lon="3.74837">
        <ele>252.99938519214</ele>
        <time>2018-09-02T12:20:28Z</time>
      </trkpt>
      <trkpt lat="43.77347" lon="3.74844">
        <ele>252.99941360633</ele>
        <time>2018-09-02T12:20:34Z</time>
      </trkpt>
      <trkpt lat="43.77342" lon="3.74853">
        <ele>251.99945079874</ele>
        <time>2018-09-02T12:20:41Z</time>
      </trkpt>
      <trkpt lat="43.7734" lon="3.74865">
        <ele>251.99949438768</ele>
        <time>2018-09-02T12:20:49Z</time>
      </trkpt>
      <trkpt lat="43.77335" lon="3.74875">
        <ele>251.99953347327</ele>
        <time>2018-09-02T12:20:57Z</time>
      </trkpt>
      <trkpt lat="43.7733" lon="3.74885">
        <ele>250.99957103177</ele>
        <time>2018-09-02T12:21:05Z</time>
      </trkpt>
      <trkpt lat="43.77326" lon="3.74894">
        <ele>249.99960602934</ele>
        <time>2018-09-02T12:21:11Z</time>
      </trkpt>
      <trkpt lat="43.7732" lon="3.74902">
        <ele>250.99963562967</ele>
        <time>2018-09-02T12:21:17Z</time>
      </trkpt>
      <trkpt lat="43.77315" lon="3.74912">
        <ele>252.99967523674</ele>
        <time>2018-09-02T12:21:23Z</time>
      </trkpt>
      <trkpt lat="43.77311" lon="3.74923">
        <ele>251.99971683621</ele>
        <time>2018-09-02T12:21:32Z</time>
      </trkpt>
      <trkpt lat="43.77308" lon="3.74933">
        <ele>250.99975234103</ele>
        <time>2018-09-02T12:21:39Z</time>
      </trkpt>
      <trkpt lat="43.77306" lon="3.74944">
        <ele>251.99979192035</ele>
        <time>2018-09-02T12:21:46Z</time>
      </trkpt>
      <trkpt lat="43.77302" lon="3.74953">
        <ele>250.99982740904</ele>
        <time>2018-09-02T12:21:53Z</time>
      </trkpt>
      <trkpt lat="43.77299" lon="3.74964">
        <ele>251.9998683008</ele>
        <time>2018-09-02T12:21:59Z</time>
      </trkpt>
      <trkpt lat="43.77297" lon="3.74974">
        <ele>251.99990600777</ele>
        <time>2018-09-02T12:22:06Z</time>
      </trkpt>
      <trkpt lat="43.77294" lon="3.74986">
        <ele>252.99994860223</ele>
        <time>2018-09-02T12:22:14Z</time>
      </trkpt>
      <trkpt lat="43.7729" lon="3.74996">
        <ele>252.99998487141</ele>
        <time>2018-09-02T12:22:20Z</time>
      </trkpt>
      <trkpt lat="43.77287" lon="3.75008">
        <ele>254.00027272315</ele>
        <time>2018-09-02T12:22:26Z</time>
      </trkpt>
      <trkpt lat="43.77286" lon="3.75019">
        <ele>256.00068580685</ele>
        <time>2018-09-02T12:22:33Z</time>
      </trkpt>
      <trkpt lat="43.77286" lon="3.7503">
        <ele>255.00108090865</ele>
        <time>2018-09-02T12:22:40Z</time>
      </trkpt>
      <trkpt lat="43.77286" lon="3.75041">
        <ele>256.00147538164</ele>
        <time>2018-09-02T12:22:46Z</time>
      </trkpt>
      <trkpt lat="43.77284" lon="3.75052">
        <ele>256.00188219287</ele>
        <time>2018-09-02T12:22:53Z</time>
      </trkpt>
      <trkpt lat="43.77287" lon="3.75063">
        <ele>257.00227764189</ele>
        <time>2018-09-02T12:23:01Z</time>
      </trkpt>
      <trkpt lat="43.77289" lon="3.75074">
        <ele>256.00268591308</ele>
        <time>2018-09-02T12:23:08Z</time>
      </trkpt>
      <trkpt lat="43.77291" lon="3.75086">
        <ele>258.00311262402</ele>
        <time>2018-09-02T12:23:15Z</time>
      </trkpt>
      <trkpt lat="43.77292" lon="3.75097">
        <ele>259.00352545027</ele>
        <time>2018-09-02T12:23:22Z</time>
      </trkpt>
      <trkpt lat="43.77295" lon="3.75107">
        <ele>258.00389435058</ele>
        <time>2018-09-02T12:23:28Z</time>
      </trkpt>
      <trkpt lat="43.77294" lon="3.75119">
        <ele>259.00433843474</ele>
        <time>2018-09-02T12:23:35Z</time>
      </trkpt>
      <trkpt lat="43.77296" lon="3.75131">
        <ele>260.00476070154</ele>
        <time>2018-09-02T12:23:42Z</time>
      </trkpt>
      <trkpt lat="43.77297" lon="3.75142">
        <ele>263.00516211044</ele>
        <time>2018-09-02T12:23:54Z</time>
      </trkpt>
      <trkpt lat="43.77299" lon="3.75154">
        <ele>263.00558541603</ele>
        <time>2018-09-02T12:24:02Z</time>
      </trkpt>
      <trkpt lat="43.773" lon="3.75165">
        <ele>264.0060089014</ele>
        <time>2018-09-02T12:24:09Z</time>
      </trkpt>
      <trkpt lat="43.77303" lon="3.75176">
        <ele>263.00638905542</ele>
        <time>2018-09-02T12:24:21Z</time>
      </trkpt>
      <trkpt lat="43.77306" lon="3.75186">
        <ele>264.00675018265</ele>
        <time>2018-09-02T12:24:29Z</time>
      </trkpt>
      <trkpt lat="43.77309" lon="3.75196">
        <ele>265.00710112611</ele>
        <time>2018-09-02T12:24:35Z</time>
      </trkpt>
      <trkpt lat="43.77313" lon="3.75205">
        <ele>265.00744670549</ele>
        <time>2018-09-02T12:24:40Z</time>
      </trkpt>
      <trkpt lat="43.77316" lon="3.75216">
        <ele>265.00782815419</ele>
        <time>2018-09-02T12:24:48Z</time>
      </trkpt>
      <trkpt lat="43.77316" lon="3.75227">
        <ele>270.00823171626</ele>
        <time>2018-09-02T12:25:02Z</time>
      </trkpt>
      <trkpt lat="43.7731" lon="3.75235">
        <ele>272.00853318026</ele>
        <time>2018-09-02T12:25:11Z</time>
      </trkpt>
      <trkpt lat="43.77302" lon="3.75241">
        <ele>274.00875499711</ele>
        <time>2018-09-02T12:25:22Z</time>
      </trkpt>
      <trkpt lat="43.77295" lon="3.75247">
        <ele>275.00898628895</ele>
        <time>2018-09-02T12:25:29Z</time>
      </trkpt>
      <trkpt lat="43.77286" lon="3.7525">
        <ele>277.00908905684</ele>
        <time>2018-09-02T12:25:34Z</time>
      </trkpt>
      <trkpt lat="43.77279" lon="3.75253">
        <ele>278.0092086343</ele>
        <time>2018-09-02T12:25:39Z</time>
      </trkpt>
      <trkpt lat="43.77271" lon="3.75259">
        <ele>278.00941327334</ele>
        <time>2018-09-02T12:25:45Z</time>
      </trkpt>
      <trkpt lat="43.77264" lon="3.75263">
        <ele>278.00957213685</ele>
        <time>2018-09-02T12:25:51Z</time>
      </trkpt>
      <trkpt lat="43.77257" lon="3.7527">
        <ele>277.0098289821</ele>
        <time>2018-09-02T12:25:58Z</time>
      </trkpt>
      <trkpt lat="43.77252" lon="3.75276">
        <ele>279.01004742254</ele>
        <time>2018-09-02T12:26:04Z</time>
      </trkpt>
      <trkpt lat="43.77246" lon="3.75285">
        <ele>280.01038026236</ele>
        <time>2018-09-02T12:26:24Z</time>
      </trkpt>
      <trkpt lat="43.77243" lon="3.75296">
        <ele>281.01078958107</ele>
        <time>2018-09-02T12:26:42Z</time>
      </trkpt>
      <trkpt lat="43.7725" lon="3.75302">
        <ele>281.01098326878</ele>
        <time>2018-09-02T12:27:19Z</time>
      </trkpt>
      <trkpt lat="43.77254" lon="3.75313">
        <ele>279.01138697331</ele>
        <time>2018-09-02T12:27:31Z</time>
      </trkpt>
      <trkpt lat="43.77257" lon="3.75324">
        <ele>279.01178012649</ele>
        <time>2018-09-02T12:27:41Z</time>
      </trkpt>
      <trkpt lat="43.7726" lon="3.75335">
        <ele>280.01216983034</ele>
        <time>2018-09-02T12:27:50Z</time>
      </trkpt>
      <trkpt lat="43.77263" lon="3.75345">
        <ele>279.01255919676</ele>
        <time>2018-09-02T12:27:58Z</time>
      </trkpt>
      <trkpt lat="43.77267" lon="3.75357">
        <ele>278.01296688374</ele>
        <time>2018-09-02T12:28:06Z</time>
      </trkpt>
      <trkpt lat="43.7727" lon="3.75367">
        <ele>277.01334568614</ele>
        <time>2018-09-02T12:28:14Z</time>
      </trkpt>
      <trkpt lat="43.77273" lon="3.75378">
        <ele>277.01375659542</ele>
        <time>2018-09-02T12:28:23Z</time>
      </trkpt>
      <trkpt lat="43.77275" lon="3.7539">
        <ele>277.01417510421</ele>
        <time>2018-09-02T12:28:31Z</time>
      </trkpt>
      <trkpt lat="43.77279" lon="3.754">
        <ele>277.01453406812</ele>
        <time>2018-09-02T12:28:38Z</time>
      </trkpt>
      <trkpt lat="43.77282" lon="3.7541">
        <ele>275.01488562005</ele>
        <time>2018-09-02T12:28:44Z</time>
      </trkpt>
      <trkpt lat="43.77286" lon="3.75421">
        <ele>274.01528048659</ele>
        <time>2018-09-02T12:28:52Z</time>
      </trkpt>
      <trkpt lat="43.77289" lon="3.75431">
        <ele>275.015674061</ele>
        <time>2018-09-02T12:29:00Z</time>
      </trkpt>
      <trkpt lat="43.77293" lon="3.75441">
        <ele>275.01603400011</ele>
        <time>2018-09-02T12:29:06Z</time>
      </trkpt>
      <trkpt lat="43.77296" lon="3.75452">
        <ele>275.01641383323</ele>
        <time>2018-09-02T12:29:12Z</time>
      </trkpt>
      <trkpt lat="43.77299" lon="3.75463">
        <ele>274.01681452327</ele>
        <time>2018-09-02T12:29:18Z</time>
      </trkpt>
      <trkpt lat="43.773" lon="3.75475">
        <ele>274.01725178293</ele>
        <time>2018-09-02T12:29:25Z</time>
      </trkpt>
      <trkpt lat="43.77303" lon="3.75485">
        <ele>274.0176139421</ele>
        <time>2018-09-02T12:29:31Z</time>
      </trkpt>
      <trkpt lat="43.77306" lon="3.75495">
        <ele>273.01798061967</ele>
        <time>2018-09-02T12:29:36Z</time>
      </trkpt>
      <trkpt lat="43.7731" lon="3.75506">
        <ele>272.01835917117</ele>
        <time>2018-09-02T12:29:42Z</time>
      </trkpt>
      <trkpt lat="43.77315" lon="3.75516">
        <ele>273.01872130557</ele>
        <time>2018-09-02T12:29:47Z</time>
      </trkpt>
      <trkpt lat="43.7732" lon="3.75524">
        <ele>273.01901088789</ele>
        <time>2018-09-02T12:29:52Z</time>
      </trkpt>
      <trkpt lat="43.77327" lon="3.7553">
        <ele>274.01923972726</ele>
        <time>2018-09-02T12:29:58Z</time>
      </trkpt>
      <trkpt lat="43.77334" lon="3.75537">
        <ele>274.01946730202</ele>
        <time>2018-09-02T12:30:05Z</time>
      </trkpt>
      <trkpt lat="43.77339" lon="3.75545">
        <ele>276.01975108619</ele>
        <time>2018-09-02T12:30:11Z</time>
      </trkpt>
      <trkpt lat="43.77345" lon="3.75552">
        <ele>275.01999582019</ele>
        <time>2018-09-02T12:30:17Z</time>
      </trkpt>
      <trkpt lat="43.77353" lon="3.75559">
        <ele>276.02024996385</ele>
        <time>2018-09-02T12:30:24Z</time>
      </trkpt>
      <trkpt lat="43.77359" lon="3.75566">
        <ele>278.02049672038</ele>
        <time>2018-09-02T12:30:30Z</time>
      </trkpt>
      <trkpt lat="43.77366" lon="3.75573">
        <ele>278.02074662331</ele>
        <time>2018-09-02T12:30:36Z</time>
      </trkpt>
      <trkpt lat="43.77372" lon="3.75581">
        <ele>278.02103885027</ele>
        <time>2018-09-02T12:30:43Z</time>
      </trkpt>
      <trkpt lat="43.77378" lon="3.75589">
        <ele>278.02133362979</ele>
        <time>2018-09-02T12:30:49Z</time>
      </trkpt>
      <trkpt lat="43.77386" lon="3.75595">
        <ele>278.02153129415</ele>
        <time>2018-09-02T12:30:56Z</time>
      </trkpt>
      <trkpt lat="43.77393" lon="3.75602">
        <ele>279.02178004799</ele>
        <time>2018-09-02T12:31:03Z</time>
      </trkpt>
      <trkpt lat="43.774" lon="3.75608">
        <ele>280.02199184155</ele>
        <time>2018-09-02T12:31:10Z</time>
      </trkpt>
      <trkpt lat="43.77405" lon="3.75617">
        <ele>279.02229322707</ele>
        <time>2018-09-02T12:31:17Z</time>
      </trkpt>
      <trkpt lat="43.77411" lon="3.75624">
        <ele>280.02253571179</ele>
        <time>2018-09-02T12:31:24Z</time>
      </trkpt>
      <trkpt lat="43.77418" lon="3.75631">
        <ele>281.0228063168</ele>
        <time>2018-09-02T12:31:31Z</time>
      </trkpt>
      <trkpt lat="43.77424" lon="3.75639">
        <ele>281.02307649705</ele>
        <time>2018-09-02T12:31:38Z</time>
      </trkpt>
      <trkpt lat="43.7743" lon="3.75647">
        <ele>280.02337803549</ele>
        <time>2018-09-02T12:31:44Z</time>
      </trkpt>
      <trkpt lat="43.77437" lon="3.75654">
        <ele>280.02361472342</ele>
        <time>2018-09-02T12:31:50Z</time>
      </trkpt>
      <trkpt lat="43.77443" lon="3.75662">
        <ele>281.02388322065</ele>
        <time>2018-09-02T12:31:57Z</time>
      </trkpt>
      <trkpt lat="43.77449" lon="3.75669">
        <ele>281.02414997387</ele>
        <time>2018-09-02T12:32:04Z</time>
      </trkpt>
      <trkpt lat="43.77455" lon="3.75678">
        <ele>280.02446497997</ele>
        <time>2018-09-02T12:32:10Z</time>
      </trkpt>
      <trkpt lat="43.77461" lon="3.75687">
        <ele>280.02476053023</ele>
        <time>2018-09-02T12:32:17Z</time>
      </trkpt>
      <trkpt lat="43.77468" lon="3.75695">
        <ele>280.02505113706</ele>
        <time>2018-09-02T12:32:25Z</time>
      </trkpt>
      <trkpt lat="43.77475" lon="3.75703">
        <ele>278.02531853621</ele>
        <time>2018-09-02T12:32:33Z</time>
      </trkpt>
      <trkpt lat="43.77482" lon="3.75709">
        <ele>279.02554224095</ele>
        <time>2018-09-02T12:32:40Z</time>
      </trkpt>
      <trkpt lat="43.7749" lon="3.75712">
        <ele>280.02565848798</ele>
        <time>2018-09-02T12:32:47Z</time>
      </trkpt>
      <trkpt lat="43.77499" lon="3.75712">
        <ele>279.02561652897</ele>
        <time>2018-09-02T12:32:54Z</time>
      </trkpt>
      <trkpt lat="43.77507" lon="3.75709">
        <ele>277.02550384196</ele>
        <time>2018-09-02T12:33:01Z</time>
      </trkpt>
      <trkpt lat="43.77515" lon="3.75704">
        <ele>275.02533969161</ele>
        <time>2018-09-02T12:33:09Z</time>
      </trkpt>
      <trkpt lat="43.77518" lon="3.75693">
        <ele>274.02494020524</ele>
        <time>2018-09-02T12:33:19Z</time>
      </trkpt>
      <trkpt lat="43.7752" lon="3.75682">
        <ele>273.02452087028</ele>
        <time>2018-09-02T12:33:26Z</time>
      </trkpt>
      <trkpt lat="43.77523" lon="3.75671">
        <ele>272.02413618786</ele>
        <time>2018-09-02T12:33:32Z</time>
      </trkpt>
      <trkpt lat="43.77524" lon="3.75659">
        <ele>271.02371019726</ele>
        <time>2018-09-02T12:33:39Z</time>
      </trkpt>
      <trkpt lat="43.77528" lon="3.7565">
        <ele>271.02335143168</ele>
        <time>2018-09-02T12:33:45Z</time>
      </trkpt>
      <trkpt lat="43.77531" lon="3.75638">
        <ele>269.02293532391</ele>
        <time>2018-09-02T12:33:52Z</time>
      </trkpt>
      <trkpt lat="43.77531" lon="3.75627">
        <ele>270.0225229438</ele>
        <time>2018-09-02T12:33:58Z</time>
      </trkpt>
      <trkpt lat="43.77533" lon="3.75614">
        <ele>268.02208319891</ele>
        <time>2018-09-02T12:34:07Z</time>
      </trkpt>
      <trkpt lat="43.77534" lon="3.75603">
        <ele>268.02167084401</ele>
        <time>2018-09-02T12:34:13Z</time>
      </trkpt>
      <trkpt lat="43.77536" lon="3.75592">
        <ele>269.02127446798</ele>
        <time>2018-09-02T12:34:19Z</time>
      </trkpt>
      <trkpt lat="43.77542" lon="3.75584">
        <ele>267.02099376496</ele>
        <time>2018-09-02T12:34:25Z</time>
      </trkpt>
      <trkpt lat="43.77549" lon="3.75578">
        <ele>264.02074860429</ele>
        <time>2018-09-02T12:34:33Z</time>
      </trkpt>
      <trkpt lat="43.77556" lon="3.75571">
        <ele>267.02049910724</ele>
        <time>2018-09-02T12:35:35Z</time>
      </trkpt>
      <trkpt lat="43.77564" lon="3.75569">
        <ele>266.02041786817</ele>
        <time>2018-09-02T12:35:41Z</time>
      </trkpt>
      <trkpt lat="43.77572" lon="3.7557">
        <ele>264.02044563808</ele>
        <time>2018-09-02T12:35:48Z</time>
      </trkpt>
      <trkpt lat="43.7758" lon="3.75575">
        <ele>263.02062490351</ele>
        <time>2018-09-02T12:35:55Z</time>
      </trkpt>
      <trkpt lat="43.77583" lon="3.75585">
        <ele>263.0209849371</ele>
        <time>2018-09-02T12:36:03Z</time>
      </trkpt>
      <trkpt lat="43.77579" lon="3.75596">
        <ele>265.0213724474</ele>
        <time>2018-09-02T12:37:40Z</time>
      </trkpt>
      <trkpt lat="43.77571" lon="3.75598">
        <ele>264.02145276078</ele>
        <time>2018-09-02T12:37:51Z</time>
      </trkpt>
      <trkpt lat="43.77563" lon="3.75603">
        <ele>266.02165715061</ele>
        <time>2018-09-02T12:38:03Z</time>
      </trkpt>
      <trkpt lat="43.7756" lon="3.75614">
        <ele>267.02202711186</ele>
        <time>2018-09-02T12:38:13Z</time>
      </trkpt>
      <trkpt lat="43.77562" lon="3.75624">
        <ele>265.02239468074</ele>
        <time>2018-09-02T12:38:21Z</time>
      </trkpt>
      <trkpt lat="43.77566" lon="3.75634">
        <ele>263.02275609987</ele>
        <time>2018-09-02T12:38:38Z</time>
      </trkpt>
      <trkpt lat="43.77566" lon="3.75646">
        <ele>263.0231887052</ele>
        <time>2018-09-02T12:38:50Z</time>
      </trkpt>
      <trkpt lat="43.77572" lon="3.75654">
        <ele>260.02346653262</ele>
        <time>2018-09-02T12:39:05Z</time>
      </trkpt>
      <trkpt lat="43.77576" lon="3.75665">
        <ele>259.02385021408</ele>
        <time>2018-09-02T12:39:15Z</time>
      </trkpt>
      <trkpt lat="43.77577" lon="3.75677">
        <ele>259.02429370437</ele>
        <time>2018-09-02T12:39:26Z</time>
      </trkpt>
      <trkpt lat="43.77579" lon="3.75688">
        <ele>258.02467896984</ele>
        <time>2018-09-02T12:39:36Z</time>
      </trkpt>
      <trkpt lat="43.77583" lon="3.75698">
        <ele>258.02502560961</ele>
        <time>2018-09-02T12:39:43Z</time>
      </trkpt>
      <trkpt lat="43.77586" lon="3.75709">
        <ele>259.02542726962</ele>
        <time>2018-09-02T12:39:50Z</time>
      </trkpt>
      <trkpt lat="43.77586" lon="3.7572">
        <ele>259.02580790966</ele>
        <time>2018-09-02T12:39:56Z</time>
      </trkpt>
      <trkpt lat="43.77586" lon="3.75731">
        <ele>257.02622433885</ele>
        <time>2018-09-02T12:40:03Z</time>
      </trkpt>
      <trkpt lat="43.77589" lon="3.75742">
        <ele>256.02661829311</ele>
        <time>2018-09-02T12:40:09Z</time>
      </trkpt>
      <trkpt lat="43.77594" lon="3.75753">
        <ele>254.02697872608</ele>
        <time>2018-09-02T12:40:15Z</time>
      </trkpt>
      <trkpt lat="43.77601" lon="3.75759">
        <ele>252.0272131794</ele>
        <time>2018-09-02T12:40:22Z</time>
      </trkpt>
      <trkpt lat="43.77606" lon="3.75769">
        <ele>255.02756526095</ele>
        <time>2018-09-02T12:40:38Z</time>
      </trkpt>
      <trkpt lat="43.7761" lon="3.7578">
        <ele>251.02794064509</ele>
        <time>2018-09-02T12:40:57Z</time>
      </trkpt>
      <trkpt lat="43.77609" lon="3.75792">
        <ele>249.02836828875</ele>
        <time>2018-09-02T12:41:07Z</time>
      </trkpt>
      <trkpt lat="43.77612" lon="3.75803">
        <ele>248.02877826682</ele>
        <time>2018-09-02T12:41:18Z</time>
      </trkpt>
      <trkpt lat="43.77616" lon="3.75814">
        <ele>248.02914587758</ele>
        <time>2018-09-02T12:41:26Z</time>
      </trkpt>
      <trkpt lat="43.77618" lon="3.75825">
        <ele>247.0295431544</ele>
        <time>2018-09-02T12:41:34Z</time>
      </trkpt>
      <trkpt lat="43.7762" lon="3.75835">
        <ele>247.02990202765</ele>
        <time>2018-09-02T12:41:41Z</time>
      </trkpt>
      <trkpt lat="43.77621" lon="3.75847">
        <ele>245.03033301149</ele>
        <time>2018-09-02T12:41:50Z</time>
      </trkpt>
      <trkpt lat="43.77622" lon="3.75859">
        <ele>244.03074446829</ele>
        <time>2018-09-02T12:41:59Z</time>
      </trkpt>
      <trkpt lat="43.77625" lon="3.7587">
        <ele>243.0311419863</ele>
        <time>2018-09-02T12:42:12Z</time>
      </trkpt>
      <trkpt lat="43.77627" lon="3.75882">
        <ele>242.03156445344</ele>
        <time>2018-09-02T12:42:26Z</time>
      </trkpt>
      <trkpt lat="43.77631" lon="3.75893">
        <ele>240.03194818711</ele>
        <time>2018-09-02T12:42:38Z</time>
      </trkpt>
      <trkpt lat="43.77633" lon="3.75903">
        <ele>240.03231319229</ele>
        <time>2018-09-02T12:42:44Z</time>
      </trkpt>
      <trkpt lat="43.77636" lon="3.75914">
        <ele>240.03270740719</ele>
        <time>2018-09-02T12:42:51Z</time>
      </trkpt>
      <trkpt lat="43.7764" lon="3.75924">
        <ele>239.03304166594</ele>
        <time>2018-09-02T12:42:57Z</time>
      </trkpt>
      <trkpt lat="43.77646" lon="3.75932">
        <ele>237.03331485289</ele>
        <time>2018-09-02T12:43:04Z</time>
      </trkpt>
      <trkpt lat="43.77652" lon="3.75938">
        <ele>236.0335421175</ele>
        <time>2018-09-02T12:43:10Z</time>
      </trkpt>
      <trkpt lat="43.77656" lon="3.75948">
        <ele>236.03388496723</ele>
        <time>2018-09-02T12:43:16Z</time>
      </trkpt>
      <trkpt lat="43.77662" lon="3.75956">
        <ele>233.03415620032</ele>
        <time>2018-09-02T12:43:22Z</time>
      </trkpt>
      <trkpt lat="43.77668" lon="3.75963">
        <ele>232.03440775558</ele>
        <time>2018-09-02T12:43:28Z</time>
      </trkpt>
      <trkpt lat="43.77672" lon="3.75974">
        <ele>232.03479071046</ele>
        <time>2018-09-02T12:43:34Z</time>
      </trkpt>
      <trkpt lat="43.77676" lon="3.75984">
        <ele>233.03515029625</ele>
        <time>2018-09-02T12:43:41Z</time>
      </trkpt>
      <trkpt lat="43.77678" lon="3.75996">
        <ele>232.0355612794</ele>
        <time>2018-09-02T12:43:47Z</time>
      </trkpt>
      <trkpt lat="43.77679" lon="3.76006">
        <ele>233.03593405657</ele>
        <time>2018-09-02T12:43:52Z</time>
      </trkpt>
      <trkpt lat="43.77683" lon="3.76017">
        <ele>233.03629930142</ele>
        <time>2018-09-02T12:43:58Z</time>
      </trkpt>
      <trkpt lat="43.77688" lon="3.76026">
        <ele>233.03662473294</ele>
        <time>2018-09-02T12:44:04Z</time>
      </trkpt>
      <trkpt lat="43.77694" lon="3.76036">
        <ele>230.03696076481</ele>
        <time>2018-09-02T12:44:14Z</time>
      </trkpt>
      <trkpt lat="43.77695" lon="3.76047">
        <ele>230.03737620552</ele>
        <time>2018-09-02T12:44:23Z</time>
      </trkpt>
      <trkpt lat="43.77696" lon="3.76058">
        <ele>231.037767727</ele>
        <time>2018-09-02T12:44:29Z</time>
      </trkpt>
      <trkpt lat="43.77699" lon="3.76068">
        <ele>231.03811774828</ele>
        <time>2018-09-02T12:44:34Z</time>
      </trkpt>
      <trkpt lat="43.77701" lon="3.7608">
        <ele>232.03851940947</ele>
        <time>2018-09-02T12:44:39Z</time>
      </trkpt>
      <trkpt lat="43.77704" lon="3.76091">
        <ele>231.0389093772</ele>
        <time>2018-09-02T12:44:45Z</time>
      </trkpt>
      <trkpt lat="43.77704" lon="3.76103">
        <ele>230.03934240031</ele>
        <time>2018-09-02T12:44:51Z</time>
      </trkpt>
      <trkpt lat="43.77704" lon="3.76115">
        <ele>229.03977234005</ele>
        <time>2018-09-02T12:44:58Z</time>
      </trkpt>
      <trkpt lat="43.777" lon="3.76126">
        <ele>229.0401735656</ele>
        <time>2018-09-02T12:45:05Z</time>
      </trkpt>
      <trkpt lat="43.77696" lon="3.76136">
        <ele>228.04052652504</ele>
        <time>2018-09-02T12:45:11Z</time>
      </trkpt>
      <trkpt lat="43.77693" lon="3.76146">
        <ele>226.04090146469</ele>
        <time>2018-09-02T12:45:18Z</time>
      </trkpt>
      <trkpt lat="43.77688" lon="3.76156">
        <ele>223.04126809403</ele>
        <time>2018-09-02T12:45:25Z</time>
      </trkpt>
      <trkpt lat="43.77684" lon="3.76165">
        <ele>224.04160231206</ele>
        <time>2018-09-02T12:45:32Z</time>
      </trkpt>
      <trkpt lat="43.77684" lon="3.76176">
        <ele>223.04197522376</ele>
        <time>2018-09-02T12:45:38Z</time>
      </trkpt>
      <trkpt lat="43.77686" lon="3.76188">
        <ele>221.04239862363</ele>
        <time>2018-09-02T12:45:47Z</time>
      </trkpt>
      <trkpt lat="43.77683" lon="3.76199">
        <ele>220.04281281858</ele>
        <time>2018-09-02T12:45:57Z</time>
      </trkpt>
      <trkpt lat="43.77681" lon="3.76209">
        <ele>220.04318676154</ele>
        <time>2018-09-02T12:46:02Z</time>
      </trkpt>
      <trkpt lat="43.77681" lon="3.76222">
        <ele>221.04361884732</ele>
        <time>2018-09-02T12:46:08Z</time>
      </trkpt>
      <trkpt lat="43.77678" lon="3.76232">
        <ele>222.04399878707</ele>
        <time>2018-09-02T12:46:14Z</time>
      </trkpt>
      <trkpt lat="43.77673" lon="3.76241">
        <ele>221.04433151312</ele>
        <time>2018-09-02T12:46:20Z</time>
      </trkpt>
      <trkpt lat="43.77673" lon="3.76253">
        <ele>221.04477060084</ele>
        <time>2018-09-02T12:46:25Z</time>
      </trkpt>
      <trkpt lat="43.77674" lon="3.76266">
        <ele>221.04522665519</ele>
        <time>2018-09-02T12:46:30Z</time>
      </trkpt>
      <trkpt lat="43.77675" lon="3.76279">
        <ele>220.0456917611</ele>
        <time>2018-09-02T12:46:35Z</time>
      </trkpt>
      <trkpt lat="43.77674" lon="3.76291">
        <ele>223.04612994096</ele>
        <time>2018-09-02T12:46:41Z</time>
      </trkpt>
      <trkpt lat="43.7767" lon="3.76301">
        <ele>223.04647842634</ele>
        <time>2018-09-02T12:46:48Z</time>
      </trkpt>
      <trkpt lat="43.77668" lon="3.76312">
        <ele>223.04687748732</ele>
        <time>2018-09-02T12:46:54Z</time>
      </trkpt>
      <trkpt lat="43.77668" lon="3.76323">
        <ele>223.04726559335</ele>
        <time>2018-09-02T12:47:00Z</time>
      </trkpt>
      <trkpt lat="43.77669" lon="3.76335">
        <ele>226.04768970134</ele>
        <time>2018-09-02T12:47:07Z</time>
      </trkpt>
      <trkpt lat="43.7767" lon="3.76347">
        <ele>227.04811294802</ele>
        <time>2018-09-02T12:47:14Z</time>
      </trkpt>
      <trkpt lat="43.77672" lon="3.76358">
        <ele>227.04852564669</ele>
        <time>2018-09-02T12:47:21Z</time>
      </trkpt>
      <trkpt lat="43.77673" lon="3.76369">
        <ele>226.04890034999</ele>
        <time>2018-09-02T12:47:27Z</time>
      </trkpt>
      <trkpt lat="43.77676" lon="3.7638">
        <ele>225.04930706916</ele>
        <time>2018-09-02T12:47:33Z</time>
      </trkpt>
      <trkpt lat="43.77678" lon="3.76391">
        <ele>224.04969579417</ele>
        <time>2018-09-02T12:47:39Z</time>
      </trkpt>
      <trkpt lat="43.77682" lon="3.76401">
        <ele>224.05004312433</ele>
        <time>2018-09-02T12:47:44Z</time>
      </trkpt>
      <trkpt lat="43.77687" lon="3.7641">
        <ele>222.0503517522</ele>
        <time>2018-09-02T12:47:51Z</time>
      </trkpt>
      <trkpt lat="43.77689" lon="3.76422">
        <ele>221.0507475676</ele>
        <time>2018-09-02T12:47:58Z</time>
      </trkpt>
      <trkpt lat="43.77684" lon="3.76431">
        <ele>220.0510878621</ele>
        <time>2018-09-02T12:48:04Z</time>
      </trkpt>
      <trkpt lat="43.77681" lon="3.76441">
        <ele>220.05144890712</ele>
        <time>2018-09-02T12:48:10Z</time>
      </trkpt>
      <trkpt lat="43.77681" lon="3.76453">
        <ele>218.0518793973</ele>
        <time>2018-09-02T12:48:18Z</time>
      </trkpt>
      <trkpt lat="43.77681" lon="3.76464">
        <ele>219.05226254529</ele>
        <time>2018-09-02T12:48:26Z</time>
      </trkpt>
      <trkpt lat="43.77681" lon="3.76475">
        <ele>220.05266637655</ele>
        <time>2018-09-02T12:48:34Z</time>
      </trkpt>
      <trkpt lat="43.77681" lon="3.76487">
        <ele>221.05308201301</ele>
        <time>2018-09-02T12:48:41Z</time>
      </trkpt>
      <trkpt lat="43.7768" lon="3.76497">
        <ele>221.05345885457</ele>
        <time>2018-09-02T12:48:46Z</time>
      </trkpt>
      <trkpt lat="43.7768" lon="3.76509">
        <ele>221.0538843969</ele>
        <time>2018-09-02T12:48:53Z</time>
      </trkpt>
      <trkpt lat="43.7768" lon="3.76518">
        <ele>221.05421196223</ele>
        <time>2018-09-02T12:48:58Z</time>
      </trkpt>
      <trkpt lat="43.7768" lon="3.7653">
        <ele>219.05462552732</ele>
        <time>2018-09-02T12:49:04Z</time>
      </trkpt>
      <trkpt lat="43.77679" lon="3.76541">
        <ele>220.05503200321</ele>
        <time>2018-09-02T12:49:11Z</time>
      </trkpt>
      <trkpt lat="43.7768" lon="3.76553">
        <ele>220.05547146133</ele>
        <time>2018-09-02T12:49:22Z</time>
      </trkpt>
      <trkpt lat="43.77681" lon="3.76564">
        <ele>224.05585924057</ele>
        <time>2018-09-02T12:50:05Z</time>
      </trkpt>
      <trkpt lat="43.77679" lon="3.76576">
        <ele>223.05628720543</ele>
        <time>2018-09-02T12:50:16Z</time>
      </trkpt>
      <trkpt lat="43.77677" lon="3.76587">
        <ele>220.0566775593</ele>
        <time>2018-09-02T12:50:27Z</time>
      </trkpt>
      <trkpt lat="43.77675" lon="3.76598">
        <ele>220.0570669318</ele>
        <time>2018-09-02T12:50:34Z</time>
      </trkpt>
      <trkpt lat="43.77669" lon="3.76608">
        <ele>220.05743516101</ele>
        <time>2018-09-02T12:50:40Z</time>
      </trkpt>
      <trkpt lat="43.77666" lon="3.76619">
        <ele>219.0578565243</ele>
        <time>2018-09-02T12:50:47Z</time>
      </trkpt>
      <trkpt lat="43.77666" lon="3.76631">
        <ele>219.05828726675</ele>
        <time>2018-09-02T12:50:54Z</time>
      </trkpt>
      <trkpt lat="43.77663" lon="3.76642">
        <ele>219.05869727721</ele>
        <time>2018-09-02T12:51:00Z</time>
      </trkpt>
      <trkpt lat="43.77662" lon="3.76654">
        <ele>218.05910952675</ele>
        <time>2018-09-02T12:51:06Z</time>
      </trkpt>
      <trkpt lat="43.77662" lon="3.76665">
        <ele>218.05950404521</ele>
        <time>2018-09-02T12:51:13Z</time>
      </trkpt>
      <trkpt lat="43.77663" lon="3.76676">
        <ele>217.05988613001</ele>
        <time>2018-09-02T12:51:19Z</time>
      </trkpt>
      <trkpt lat="43.77665" lon="3.76687">
        <ele>216.06029913797</ele>
        <time>2018-09-02T12:51:33Z</time>
      </trkpt>
      <trkpt lat="43.77666" lon="3.76699">
        <ele>216.06071633327</ele>
        <time>2018-09-02T12:51:39Z</time>
      </trkpt>
      <trkpt lat="43.77666" lon="3.76711">
        <ele>216.061126912</ele>
        <time>2018-09-02T12:51:45Z</time>
      </trkpt>
      <trkpt lat="43.77665" lon="3.76722">
        <ele>217.0615173561</ele>
        <time>2018-09-02T12:51:51Z</time>
      </trkpt>
      <trkpt lat="43.77665" lon="3.76733">
        <ele>216.06194266811</ele>
        <time>2018-09-02T12:51:57Z</time>
      </trkpt>
      <trkpt lat="43.77666" lon="3.76744">
        <ele>217.06230639154</ele>
        <time>2018-09-02T12:52:02Z</time>
      </trkpt>
      <trkpt lat="43.77667" lon="3.76755">
        <ele>217.06269436411</ele>
        <time>2018-09-02T12:52:07Z</time>
      </trkpt>
      <trkpt lat="43.77667" lon="3.76765">
        <ele>217.06308077696</ele>
        <time>2018-09-02T12:52:13Z</time>
      </trkpt>
      <trkpt lat="43.77668" lon="3.76777">
        <ele>218.06349974921</ele>
        <time>2018-09-02T12:52:20Z</time>
      </trkpt>
      <trkpt lat="43.7767" lon="3.76789">
        <ele>219.06390105302</ele>
        <time>2018-09-02T12:52:27Z</time>
      </trkpt>
      <trkpt lat="43.77672" lon="3.768">
        <ele>220.06429431764</ele>
        <time>2018-09-02T12:52:35Z</time>
      </trkpt>
      <trkpt lat="43.77673" lon="3.76812">
        <ele>219.06473120218</ele>
        <time>2018-09-02T12:52:46Z</time>
      </trkpt>
      <trkpt lat="43.77677" lon="3.76823">
        <ele>219.06510637308</ele>
        <time>2018-09-02T12:52:54Z</time>
      </trkpt>
      <trkpt lat="43.77679" lon="3.76835">
        <ele>219.06551667502</ele>
        <time>2018-09-02T12:53:02Z</time>
      </trkpt>
      <trkpt lat="43.77679" lon="3.76846">
        <ele>220.06592438254</ele>
        <time>2018-09-02T12:53:08Z</time>
      </trkpt>
      <trkpt lat="43.77677" lon="3.76857">
        <ele>220.06631756509</ele>
        <time>2018-09-02T12:53:13Z</time>
      </trkpt>
      <trkpt lat="43.77677" lon="3.76869">
        <ele>220.06674928888</ele>
        <time>2018-09-02T12:53:19Z</time>
      </trkpt>
      <trkpt lat="43.77678" lon="3.76879">
        <ele>220.06711960745</ele>
        <time>2018-09-02T12:53:24Z</time>
      </trkpt>
      <trkpt lat="43.77678" lon="3.7689">
        <ele>219.06749188913</ele>
        <time>2018-09-02T12:53:29Z</time>
      </trkpt>
      <trkpt lat="43.7768" lon="3.76901">
        <ele>219.06790221685</ele>
        <time>2018-09-02T12:53:35Z</time>
      </trkpt>
      <trkpt lat="43.7768" lon="3.76914">
        <ele>220.06834070981</ele>
        <time>2018-09-02T12:53:41Z</time>
      </trkpt>
      <trkpt lat="43.77679" lon="3.76926">
        <ele>220.06877509197</ele>
        <time>2018-09-02T12:53:48Z</time>
      </trkpt>
      <trkpt lat="43.77678" lon="3.76937">
        <ele>219.06916800359</ele>
        <time>2018-09-02T12:53:54Z</time>
      </trkpt>
      <trkpt lat="43.77676" lon="3.76946">
        <ele>218.06949264549</ele>
        <time>2018-09-02T12:53:59Z</time>
      </trkpt>
      <trkpt lat="43.77673" lon="3.76957">
        <ele>218.06989445709</ele>
        <time>2018-09-02T12:54:06Z</time>
      </trkpt>
      <trkpt lat="43.77672" lon="3.76968">
        <ele>218.07030508347</ele>
        <time>2018-09-02T12:54:13Z</time>
      </trkpt>
      <trkpt lat="43.7767" lon="3.76979">
        <ele>217.0707086066</ele>
        <time>2018-09-02T12:54:20Z</time>
      </trkpt>
      <trkpt lat="43.77667" lon="3.7699">
        <ele>218.0711209689</ele>
        <time>2018-09-02T12:54:28Z</time>
      </trkpt>
      <trkpt lat="43.77663" lon="3.77002">
        <ele>218.07153106456</ele>
        <time>2018-09-02T12:54:37Z</time>
      </trkpt>
      <trkpt lat="43.77667" lon="3.77012">
        <ele>220.07189282752</ele>
        <time>2018-09-02T12:54:50Z</time>
      </trkpt>
      <trkpt lat="43.77672" lon="3.77022">
        <ele>219.07222820812</ele>
        <time>2018-09-02T12:55:01Z</time>
      </trkpt>
      <trkpt lat="43.77678" lon="3.77031">
        <ele>217.07252842835</ele>
        <time>2018-09-02T12:55:08Z</time>
      </trkpt>
      <trkpt lat="43.77681" lon="3.77042">
        <ele>216.07290360018</ele>
        <time>2018-09-02T12:55:15Z</time>
      </trkpt>
      <trkpt lat="43.77685" lon="3.77052">
        <ele>215.07325053833</ele>
        <time>2018-09-02T12:55:22Z</time>
      </trkpt>
      <trkpt lat="43.77687" lon="3.77062">
        <ele>215.07361033908</ele>
        <time>2018-09-02T12:55:28Z</time>
      </trkpt>
      <trkpt lat="43.77688" lon="3.77073">
        <ele>215.07400123509</ele>
        <time>2018-09-02T12:55:34Z</time>
      </trkpt>
      <trkpt lat="43.7769" lon="3.77086">
        <ele>214.07444359596</ele>
        <time>2018-09-02T12:55:39Z</time>
      </trkpt>
      <trkpt lat="43.77694" lon="3.77096">
        <ele>213.07481511268</ele>
        <time>2018-09-02T12:55:44Z</time>
      </trkpt>
      <trkpt lat="43.77696" lon="3.77107">
        <ele>213.07518968914</ele>
        <time>2018-09-02T12:55:49Z</time>
      </trkpt>
      <trkpt lat="43.77699" lon="3.77119">
        <ele>211.07559959922</ele>
        <time>2018-09-02T12:55:55Z</time>
      </trkpt>
      <trkpt lat="43.77702" lon="3.7713">
        <ele>210.07597443703</ele>
        <time>2018-09-02T12:56:01Z</time>
      </trkpt>
      <trkpt lat="43.77703" lon="3.7714">
        <ele>209.07634813463</ele>
        <time>2018-09-02T12:56:06Z</time>
      </trkpt>
      <trkpt lat="43.77704" lon="3.7715">
        <ele>209.07670993117</ele>
        <time>2018-09-02T12:56:12Z</time>
      </trkpt>
      <trkpt lat="43.77708" lon="3.77161">
        <ele>210.07709203177</ele>
        <time>2018-09-02T12:56:19Z</time>
      </trkpt>
      <trkpt lat="43.77712" lon="3.77171">
        <ele>211.07740878301</ele>
        <time>2018-09-02T12:56:24Z</time>
      </trkpt>
      <trkpt lat="43.77717" lon="3.7718">
        <ele>210.07772655271</ele>
        <time>2018-09-02T12:56:31Z</time>
      </trkpt>
      <trkpt lat="43.77722" lon="3.7719">
        <ele>209.07805216165</ele>
        <time>2018-09-02T12:56:37Z</time>
      </trkpt>
      <trkpt lat="43.77727" lon="3.77197">
        <ele>208.07829856326</ele>
        <time>2018-09-02T12:56:43Z</time>
      </trkpt>
      <trkpt lat="43.77732" lon="3.77204">
        <ele>207.07851596462</ele>
        <time>2018-09-02T12:56:47Z</time>
      </trkpt>
      <trkpt lat="43.77738" lon="3.77213">
        <ele>207.0788231717</ele>
        <time>2018-09-02T12:56:52Z</time>
      </trkpt>
      <trkpt lat="43.77742" lon="3.77223">
        <ele>206.07915937478</ele>
        <time>2018-09-02T12:56:57Z</time>
      </trkpt>
      <trkpt lat="43.77747" lon="3.77233">
        <ele>205.07950810377</ele>
        <time>2018-09-02T12:57:03Z</time>
      </trkpt>
      <trkpt lat="43.77751" lon="3.77243">
        <ele>204.07985992496</ele>
        <time>2018-09-02T12:57:09Z</time>
      </trkpt>
      <trkpt lat="43.77755" lon="3.77253">
        <ele>204.08017554538</ele>
        <time>2018-09-02T12:57:15Z</time>
      </trkpt>
      <trkpt lat="43.7776" lon="3.77263">
        <ele>211.08052320382</ele>
        <time>2018-09-02T12:59:21Z</time>
      </trkpt>
      <trkpt lat="43.77761" lon="3.77275">
        <ele>212.08093732736</ele>
        <time>2018-09-02T12:59:29Z</time>
      </trkpt>
      <trkpt lat="43.77762" lon="3.77285">
        <ele>213.08130128834</ele>
        <time>2018-09-02T12:59:36Z</time>
      </trkpt>
      <trkpt lat="43.77763" lon="3.77296">
        <ele>213.0816917526</ele>
        <time>2018-09-02T12:59:42Z</time>
      </trkpt>
      <trkpt lat="43.77764" lon="3.77307">
        <ele>211.08208244199</ele>
        <time>2018-09-02T12:59:49Z</time>
      </trkpt>
      <trkpt lat="43.77765" lon="3.77318">
        <ele>210.08245992509</ele>
        <time>2018-09-02T12:59:55Z</time>
      </trkpt>
      <trkpt lat="43.77765" lon="3.77329">
        <ele>210.0828586809</ele>
        <time>2018-09-02T13:00:01Z</time>
      </trkpt>
      <trkpt lat="43.77766" lon="3.77341">
        <ele>210.08326545905</ele>
        <time>2018-09-02T13:00:09Z</time>
      </trkpt>
      <trkpt lat="43.77767" lon="3.77352">
        <ele>208.08368267234</ele>
        <time>2018-09-02T13:00:17Z</time>
      </trkpt>
      <trkpt lat="43.77767" lon="3.77364">
        <ele>211.08410875563</ele>
        <time>2018-09-02T13:00:22Z</time>
      </trkpt>
      <trkpt lat="43.77766" lon="3.77377">
        <ele>213.08454130893</ele>
        <time>2018-09-02T13:00:28Z</time>
      </trkpt>
      <trkpt lat="43.77766" lon="3.77387">
        <ele>213.0849262993</ele>
        <time>2018-09-02T13:00:33Z</time>
      </trkpt>
      <trkpt lat="43.77766" lon="3.77399">
        <ele>214.08533379116</ele>
        <time>2018-09-02T13:00:40Z</time>
      </trkpt>
      <trkpt lat="43.77764" lon="3.7741">
        <ele>214.08572452989</ele>
        <time>2018-09-02T13:00:47Z</time>
      </trkpt>
      <trkpt lat="43.77768" lon="3.77419">
        <ele>212.08605070695</ele>
        <time>2018-09-02T13:00:52Z</time>
      </trkpt>
      <trkpt lat="43.77773" lon="3.77429">
        <ele>212.08639902853</ele>
        <time>2018-09-02T13:00:58Z</time>
      </trkpt>
      <trkpt lat="43.77778" lon="3.77439">
        <ele>212.08671787089</ele>
        <time>2018-09-02T13:01:04Z</time>
      </trkpt>
      <trkpt lat="43.77784" lon="3.77448">
        <ele>211.08701426558</ele>
        <time>2018-09-02T13:01:12Z</time>
      </trkpt>
      <trkpt lat="43.77792" lon="3.77452">
        <ele>211.08714055072</ele>
        <time>2018-09-02T13:01:19Z</time>
      </trkpt>
      <trkpt lat="43.77794" lon="3.77464">
        <ele>212.08753178194</ele>
        <time>2018-09-02T13:01:26Z</time>
      </trkpt>
      <trkpt lat="43.77797" lon="3.77474">
        <ele>211.08786835178</ele>
        <time>2018-09-02T13:01:32Z</time>
      </trkpt>
      <trkpt lat="43.778" lon="3.77482">
        <ele>211.08817128835</ele>
        <time>2018-09-02T13:01:37Z</time>
      </trkpt>
      <trkpt lat="43.77804" lon="3.77493">
        <ele>210.08853707612</ele>
        <time>2018-09-02T13:01:43Z</time>
      </trkpt>
      <trkpt lat="43.77807" lon="3.77505">
        <ele>209.08893881772</ele>
        <time>2018-09-02T13:01:50Z</time>
      </trkpt>
      <trkpt lat="43.77814" lon="3.77512">
        <ele>207.08916597143</ele>
        <time>2018-09-02T13:01:58Z</time>
      </trkpt>
      <trkpt lat="43.77821" lon="3.77518">
        <ele>206.08934765738</ele>
        <time>2018-09-02T13:02:04Z</time>
      </trkpt>
      <trkpt lat="43.77827" lon="3.77525">
        <ele>206.08957088695</ele>
        <time>2018-09-02T13:02:10Z</time>
      </trkpt>
      <trkpt lat="43.77833" lon="3.77532">
        <ele>206.08980937567</ele>
        <time>2018-09-02T13:02:16Z</time>
      </trkpt>
      <trkpt lat="43.77839" lon="3.77539">
        <ele>205.0900266363</ele>
        <time>2018-09-02T13:02:22Z</time>
      </trkpt>
      <trkpt lat="43.77845" lon="3.77548">
        <ele>205.09031301841</ele>
        <time>2018-09-02T13:02:29Z</time>
      </trkpt>
      <trkpt lat="43.77852" lon="3.77555">
        <ele>209.09053209479</ele>
        <time>2018-09-02T13:02:45Z</time>
      </trkpt>
      <trkpt lat="43.7786" lon="3.77557">
        <ele>209.09059097313</ele>
        <time>2018-09-02T13:03:17Z</time>
      </trkpt>
      <trkpt lat="43.77868" lon="3.77562">
        <ele>209.09072695915</ele>
        <time>2018-09-02T13:03:38Z</time>
      </trkpt>
      <trkpt lat="43.77883" lon="3.77573">
        <ele>210.09105223445</ele>
        <time>2018-09-02T13:03:54Z</time>
      </trkpt>
      <trkpt lat="43.77891" lon="3.77579">
        <ele>208.09123606453</ele>
        <time>2018-09-02T13:04:13Z</time>
      </trkpt>
      <trkpt lat="43.77898" lon="3.77585">
        <ele>207.09142008263</ele>
        <time>2018-09-02T13:04:19Z</time>
      </trkpt>
      <trkpt lat="43.77904" lon="3.77593">
        <ele>207.09165751018</ele>
        <time>2018-09-02T13:04:25Z</time>
      </trkpt>
      <trkpt lat="43.77911" lon="3.77599">
        <ele>206.09185715129</ele>
        <time>2018-09-02T13:04:30Z</time>
      </trkpt>
      <trkpt lat="43.77917" lon="3.77608">
        <ele>208.09212887369</ele>
        <time>2018-09-02T13:04:36Z</time>
      </trkpt>
      <trkpt lat="43.77925" lon="3.7761">
        <ele>208.0921986979</ele>
        <time>2018-09-02T13:04:42Z</time>
      </trkpt>
      <trkpt lat="43.77933" lon="3.77613">
        <ele>206.09224779125</ele>
        <time>2018-09-02T13:04:49Z</time>
      </trkpt>
      <trkpt lat="43.77939" lon="3.77604">
        <ele>206.09189640873</ele>
        <time>2018-09-02T13:04:55Z</time>
      </trkpt>
      <trkpt lat="43.77944" lon="3.77594">
        <ele>207.0915560526</ele>
        <time>2018-09-02T13:05:37Z</time>
      </trkpt>
      <trkpt lat="43.77949" lon="3.77585">
        <ele>207.09120685926</ele>
        <time>2018-09-02T13:05:45Z</time>
      </trkpt>
      <trkpt lat="43.77952" lon="3.77574">
        <ele>207.09080960467</ele>
        <time>2018-09-02T13:05:52Z</time>
      </trkpt>
      <trkpt lat="43.77958" lon="3.77566">
        <ele>205.0905008008</ele>
        <time>2018-09-02T13:05:59Z</time>
      </trkpt>
      <trkpt lat="43.77963" lon="3.77557">
        <ele>205.09015706237</ele>
        <time>2018-09-02T13:06:05Z</time>
      </trkpt>
      <trkpt lat="43.7797" lon="3.77551">
        <ele>205.08990194125</ele>
        <time>2018-09-02T13:06:14Z</time>
      </trkpt>
      <trkpt lat="43.77976" lon="3.77542">
        <ele>206.08957789429</ele>
        <time>2018-09-02T13:06:21Z</time>
      </trkpt>
      <trkpt lat="43.77983" lon="3.77535">
        <ele>207.08928255661</ele>
        <time>2018-09-02T13:06:28Z</time>
      </trkpt>
      <trkpt lat="43.77992" lon="3.77537">
        <ele>207.0893199488</ele>
        <time>2018-09-02T13:06:35Z</time>
      </trkpt>
      <trkpt lat="43.77998" lon="3.77538">
        <ele>208.08935368809</ele>
        <time>2018-09-02T13:06:41Z</time>
      </trkpt>
      <trkpt lat="43.78007" lon="3.7754">
        <ele>206.08939489417</ele>
        <time>2018-09-02T13:06:48Z</time>
      </trkpt>
      <trkpt lat="43.78015" lon="3.77543">
        <ele>205.08945006881</ele>
        <time>2018-09-02T13:06:55Z</time>
      </trkpt>
      <trkpt lat="43.78024" lon="3.77544">
        <ele>205.08945134335</ele>
        <time>2018-09-02T13:07:01Z</time>
      </trkpt>
      <trkpt lat="43.78032" lon="3.77546">
        <ele>205.0894858767</ele>
        <time>2018-09-02T13:07:07Z</time>
      </trkpt>
      <trkpt lat="43.7804" lon="3.77549">
        <ele>203.08956757209</ele>
        <time>2018-09-02T13:07:13Z</time>
      </trkpt>
      <trkpt lat="43.78048" lon="3.77553">
        <ele>203.0896662765</ele>
        <time>2018-09-02T13:07:19Z</time>
      </trkpt>
      <trkpt lat="43.78056" lon="3.77551">
        <ele>203.08956439388</ele>
        <time>2018-09-02T13:07:24Z</time>
      </trkpt>
      <trkpt lat="43.78063" lon="3.7755">
        <ele>203.08949862969</ele>
        <time>2018-09-02T13:07:29Z</time>
      </trkpt>
      <trkpt lat="43.78072" lon="3.77548">
        <ele>204.08938414248</ele>
        <time>2018-09-02T13:07:36Z</time>
      </trkpt>
      <trkpt lat="43.7808" lon="3.77543">
        <ele>203.08917891853</ele>
        <time>2018-09-02T13:07:42Z</time>
      </trkpt>
      <trkpt lat="43.78087" lon="3.77538">
        <ele>203.08899365509</ele>
        <time>2018-09-02T13:07:47Z</time>
      </trkpt>
      <trkpt lat="43.78096" lon="3.77537">
        <ele>203.0889038378</ele>
        <time>2018-09-02T13:07:53Z</time>
      </trkpt>
      <trkpt lat="43.78103" lon="3.77542">
        <ele>204.08906196614</ele>
        <time>2018-09-02T13:08:00Z</time>
      </trkpt>
      <trkpt lat="43.78106" lon="3.77552">
        <ele>204.0893934783</ele>
        <time>2018-09-02T13:08:06Z</time>
      </trkpt>
      <trkpt lat="43.78103" lon="3.77562">
        <ele>204.08974934151</ele>
        <time>2018-09-02T13:08:11Z</time>
      </trkpt>
      <trkpt lat="43.78104" lon="3.77573">
        <ele>205.09013795374</ele>
        <time>2018-09-02T13:08:18Z</time>
      </trkpt>
      <trkpt lat="43.78107" lon="3.77583">
        <ele>205.09049354391</ele>
        <time>2018-09-02T13:08:25Z</time>
      </trkpt>
      <trkpt lat="43.78114" lon="3.7759">
        <ele>205.09070630145</ele>
        <time>2018-09-02T13:08:33Z</time>
      </trkpt>
      <trkpt lat="43.78122" lon="3.7759">
        <ele>204.09066423704</ele>
        <time>2018-09-02T13:08:38Z</time>
      </trkpt>
      <trkpt lat="43.78129" lon="3.77585">
        <ele>204.09046840833</ele>
        <time>2018-09-02T13:08:44Z</time>
      </trkpt>
      <trkpt lat="43.78137" lon="3.77581">
        <ele>203.09029892229</ele>
        <time>2018-09-02T13:08:51Z</time>
      </trkpt>
      <trkpt lat="43.78144" lon="3.77574">
        <ele>205.0900220938</ele>
        <time>2018-09-02T13:08:57Z</time>
      </trkpt>
      <trkpt lat="43.78152" lon="3.77569">
        <ele>206.08980912926</ele>
        <time>2018-09-02T13:09:06Z</time>
      </trkpt>
      <trkpt lat="43.78157" lon="3.77561">
        <ele>205.0895117702</ele>
        <time>2018-09-02T13:09:18Z</time>
      </trkpt>
      <trkpt lat="43.78164" lon="3.77554">
        <ele>204.08922957638</ele>
        <time>2018-09-02T13:09:25Z</time>
      </trkpt>
      <trkpt lat="43.78169" lon="3.77548">
        <ele>204.0889963546</ele>
        <time>2018-09-02T13:09:31Z</time>
      </trkpt>
      <trkpt lat="43.78176" lon="3.77541">
        <ele>204.0887241938</ele>
        <time>2018-09-02T13:09:37Z</time>
      </trkpt>
      <trkpt lat="43.78184" lon="3.77536">
        <ele>204.08850850201</ele>
        <time>2018-09-02T13:09:44Z</time>
      </trkpt>
      <trkpt lat="43.78193" lon="3.77535">
        <ele>202.08846285928</ele>
        <time>2018-09-02T13:09:51Z</time>
      </trkpt>
      <trkpt lat="43.78201" lon="3.77536">
        <ele>202.0884447194</ele>
        <time>2018-09-02T13:09:58Z</time>
      </trkpt>
      <trkpt lat="43.78208" lon="3.77531">
        <ele>205.08825737249</ele>
        <time>2018-09-02T13:10:28Z</time>
      </trkpt>
      <trkpt lat="43.78211" lon="3.77521">
        <ele>206.08788274468</ele>
        <time>2018-09-02T13:10:42Z</time>
      </trkpt>
      <trkpt lat="43.78211" lon="3.7751">
        <ele>205.08748670442</ele>
        <time>2018-09-02T13:10:51Z</time>
      </trkpt>
      <trkpt lat="43.7821" lon="3.77498">
        <ele>204.08709625337</ele>
        <time>2018-09-02T13:10:58Z</time>
      </trkpt>
      <trkpt lat="43.78211" lon="3.77487">
        <ele>204.08670971903</ele>
        <time>2018-09-02T13:11:05Z</time>
      </trkpt>
      <trkpt lat="43.78214" lon="3.77477">
        <ele>205.08633797526</ele>
        <time>2018-09-02T13:11:11Z</time>
      </trkpt>
      <trkpt lat="43.78218" lon="3.77468">
        <ele>205.08599420558</ele>
        <time>2018-09-02T13:11:16Z</time>
      </trkpt>
      <trkpt lat="43.78223" lon="3.77457">
        <ele>206.08562233045</ele>
        <time>2018-09-02T13:11:22Z</time>
      </trkpt>
      <trkpt lat="43.78228" lon="3.77448">
        <ele>207.08527389391</ele>
        <time>2018-09-02T13:11:38Z</time>
      </trkpt>
      <trkpt lat="43.78225" lon="3.77459">
        <ele>207.08567207292</ele>
        <time>2018-09-02T13:11:58Z</time>
      </trkpt>
      <trkpt lat="43.78224" lon="3.77447">
        <ele>208.08526613872</ele>
        <time>2018-09-02T13:13:52Z</time>
      </trkpt>
      <trkpt lat="43.78229" lon="3.77439">
        <ele>207.08496699385</ele>
        <time>2018-09-02T13:14:44Z</time>
      </trkpt>
      <trkpt lat="43.78226" lon="3.77429">
        <ele>204.08461831202</ele>
        <time>2018-09-02T13:14:50Z</time>
      </trkpt>
      <trkpt lat="43.78227" lon="3.77419">
        <ele>203.08427450951</ele>
        <time>2018-09-02T13:14:56Z</time>
      </trkpt>
      <trkpt lat="43.78233" lon="3.7741">
        <ele>204.08394138914</ele>
        <time>2018-09-02T13:15:04Z</time>
      </trkpt>
      <trkpt lat="43.78237" lon="3.77401">
        <ele>204.08359818937</ele>
        <time>2018-09-02T13:15:11Z</time>
      </trkpt>
      <trkpt lat="43.78241" lon="3.7739">
        <ele>204.08319927205</ele>
        <time>2018-09-02T13:15:17Z</time>
      </trkpt>
      <trkpt lat="43.78244" lon="3.7738">
        <ele>203.08286117742</ele>
        <time>2018-09-02T13:15:22Z</time>
      </trkpt>
      <trkpt lat="43.78248" lon="3.77369">
        <ele>202.08245876632</ele>
        <time>2018-09-02T13:15:28Z</time>
      </trkpt>
      <trkpt lat="43.78251" lon="3.77359">
        <ele>203.08209486207</ele>
        <time>2018-09-02T13:15:33Z</time>
      </trkpt>
      <trkpt lat="43.78254" lon="3.7735">
        <ele>205.08174850287</ele>
        <time>2018-09-02T13:15:39Z</time>
      </trkpt>
      <trkpt lat="43.78259" lon="3.77341">
        <ele>206.0814144083</ele>
        <time>2018-09-02T13:15:45Z</time>
      </trkpt>
      <trkpt lat="43.78265" lon="3.77333">
        <ele>205.08111877561</ele>
        <time>2018-09-02T13:15:51Z</time>
      </trkpt>
      <trkpt lat="43.78269" lon="3.77326">
        <ele>206.080866121</ele>
        <time>2018-09-02T13:15:57Z</time>
      </trkpt>
      <trkpt lat="43.78273" lon="3.77316">
        <ele>206.08050976662</ele>
        <time>2018-09-02T13:16:03Z</time>
      </trkpt>
      <trkpt lat="43.78276" lon="3.77306">
        <ele>205.08014094535</ele>
        <time>2018-09-02T13:16:08Z</time>
      </trkpt>
      <trkpt lat="43.78282" lon="3.77299">
        <ele>205.07988255964</ele>
        <time>2018-09-02T13:16:13Z</time>
      </trkpt>
      <trkpt lat="43.78287" lon="3.77291">
        <ele>205.07959528135</ele>
        <time>2018-09-02T13:16:18Z</time>
      </trkpt>
      <trkpt lat="43.78296" lon="3.77293">
        <ele>206.07961665911</ele>
        <time>2018-09-02T13:16:24Z</time>
      </trkpt>
      <trkpt lat="43.783" lon="3.77302">
        <ele>207.07991870449</ele>
        <time>2018-09-02T13:16:30Z</time>
      </trkpt>
      <trkpt lat="43.78302" lon="3.77312">
        <ele>208.08027634188</ele>
        <time>2018-09-02T13:16:36Z</time>
      </trkpt>
      <trkpt lat="43.78304" lon="3.77323">
        <ele>207.08063187039</ele>
        <time>2018-09-02T13:16:42Z</time>
      </trkpt>
      <trkpt lat="43.78306" lon="3.77335">
        <ele>208.08104294519</ele>
        <time>2018-09-02T13:16:48Z</time>
      </trkpt>
      <trkpt lat="43.78306" lon="3.77346">
        <ele>210.08142498788</ele>
        <time>2018-09-02T13:16:54Z</time>
      </trkpt>
      <trkpt lat="43.78305" lon="3.77358">
        <ele>210.08184402536</ele>
        <time>2018-09-02T13:17:00Z</time>
      </trkpt>
      <trkpt lat="43.78307" lon="3.7737">
        <ele>212.08225426866</ele>
        <time>2018-09-02T13:17:07Z</time>
      </trkpt>
      <trkpt lat="43.7831" lon="3.77381">
        <ele>213.08261717088</ele>
        <time>2018-09-02T13:17:14Z</time>
      </trkpt>
      <trkpt lat="43.7831" lon="3.77393">
        <ele>215.08303223873</ele>
        <time>2018-09-02T13:17:20Z</time>
      </trkpt>
      <trkpt lat="43.78309" lon="3.77403">
        <ele>215.08338957573</ele>
        <time>2018-09-02T13:17:25Z</time>
      </trkpt>
      <trkpt lat="43.78308" lon="3.77414">
        <ele>214.08378958434</ele>
        <time>2018-09-02T13:17:30Z</time>
      </trkpt>
      <trkpt lat="43.78308" lon="3.77425">
        <ele>214.08415473574</ele>
        <time>2018-09-02T13:17:35Z</time>
      </trkpt>
      <trkpt lat="43.78303" lon="3.77436">
        <ele>209.08455081506</ele>
        <time>2018-09-02T13:17:42Z</time>
      </trkpt>
      <trkpt lat="43.78299" lon="3.77446">
        <ele>208.08492291776</ele>
        <time>2018-09-02T13:17:48Z</time>
      </trkpt>
      <trkpt lat="43.78296" lon="3.77456">
        <ele>208.08528281394</ele>
        <time>2018-09-02T13:17:55Z</time>
      </trkpt>
      <trkpt lat="43.78294" lon="3.77468">
        <ele>208.08571065406</ele>
        <time>2018-09-02T13:18:01Z</time>
      </trkpt>
      <trkpt lat="43.78291" lon="3.77479">
        <ele>210.08610436423</ele>
        <time>2018-09-02T13:18:07Z</time>
      </trkpt>
      <trkpt lat="43.78291" lon="3.7749">
        <ele>210.08648671</ele>
        <time>2018-09-02T13:18:13Z</time>
      </trkpt>
      <trkpt lat="43.78291" lon="3.775">
        <ele>210.08682265512</ele>
        <time>2018-09-02T13:18:18Z</time>
      </trkpt>
      <trkpt lat="43.78292" lon="3.77512">
        <ele>210.08724124915</ele>
        <time>2018-09-02T13:18:26Z</time>
      </trkpt>
      <trkpt lat="43.7829" lon="3.77524">
        <ele>212.08765764983</ele>
        <time>2018-09-02T13:18:33Z</time>
      </trkpt>
      <trkpt lat="43.78288" lon="3.77535">
        <ele>210.08806958053</ele>
        <time>2018-09-02T13:18:57Z</time>
      </trkpt>
      <trkpt lat="43.78295" lon="3.77529">
        <ele>205.08784337327</ele>
        <time>2018-09-02T13:19:52Z</time>
      </trkpt>
      <trkpt lat="43.78305" lon="3.77545">
        <ele>206.08834178234</ele>
        <time>2018-09-02T13:20:09Z</time>
      </trkpt>
      <trkpt lat="43.78313" lon="3.77547">
        <ele>203.08837119231</ele>
        <time>2018-09-02T13:22:06Z</time>
      </trkpt>
      <trkpt lat="43.78322" lon="3.77544">
        <ele>202.08822731487</ele>
        <time>2018-09-02T13:22:18Z</time>
      </trkpt>
      <trkpt lat="43.78329" lon="3.77536">
        <ele>201.08793619769</ele>
        <time>2018-09-02T13:22:38Z</time>
      </trkpt>
      <trkpt lat="43.78333" lon="3.77527">
        <ele>201.08759685087</ele>
        <time>2018-09-02T13:22:44Z</time>
      </trkpt>
      <trkpt lat="43.78337" lon="3.77517">
        <ele>200.08722483475</ele>
        <time>2018-09-02T13:22:51Z</time>
      </trkpt>
      <trkpt lat="43.78342" lon="3.77506">
        <ele>200.0868513092</ele>
        <time>2018-09-02T13:22:57Z</time>
      </trkpt>
      <trkpt lat="43.78347" lon="3.77498">
        <ele>200.08654081966</ele>
        <time>2018-09-02T13:23:02Z</time>
      </trkpt>
      <trkpt lat="43.78352" lon="3.77489">
        <ele>199.08621356325</ele>
        <time>2018-09-02T13:23:09Z</time>
      </trkpt>
      <trkpt lat="43.78359" lon="3.77482">
        <ele>197.08592617966</ele>
        <time>2018-09-02T13:23:15Z</time>
      </trkpt>
      <trkpt lat="43.78364" lon="3.77474">
        <ele>199.08563382891</ele>
        <time>2018-09-02T13:23:20Z</time>
      </trkpt>
      <trkpt lat="43.78369" lon="3.77465">
        <ele>199.08529534866</ele>
        <time>2018-09-02T13:23:26Z</time>
      </trkpt>
      <trkpt lat="43.78373" lon="3.77457">
        <ele>199.085022302</ele>
        <time>2018-09-02T13:23:30Z</time>
      </trkpt>
      <trkpt lat="43.78376" lon="3.77447">
        <ele>200.08466608425</ele>
        <time>2018-09-02T13:23:36Z</time>
      </trkpt>
      <trkpt lat="43.78379" lon="3.77436">
        <ele>200.08426371739</ele>
        <time>2018-09-02T13:23:42Z</time>
      </trkpt>
      <trkpt lat="43.78383" lon="3.77425">
        <ele>200.08386070606</ele>
        <time>2018-09-02T13:23:48Z</time>
      </trkpt>
      <trkpt lat="43.78386" lon="3.77414">
        <ele>199.08349245229</ele>
        <time>2018-09-02T13:23:54Z</time>
      </trkpt>
      <trkpt lat="43.78392" lon="3.77405">
        <ele>198.08315720747</ele>
        <time>2018-09-02T13:24:00Z</time>
      </trkpt>
      <trkpt lat="43.78398" lon="3.77399">
        <ele>198.08289969104</ele>
        <time>2018-09-02T13:24:05Z</time>
      </trkpt>
      <trkpt lat="43.78402" lon="3.7739">
        <ele>198.08259236627</ele>
        <time>2018-09-02T13:24:10Z</time>
      </trkpt>
      <trkpt lat="43.78407" lon="3.77381">
        <ele>198.08225253363</ele>
        <time>2018-09-02T13:24:15Z</time>
      </trkpt>
      <trkpt lat="43.78411" lon="3.77374">
        <ele>198.08199232696</ele>
        <time>2018-09-02T13:24:20Z</time>
      </trkpt>
      <trkpt lat="43.78418" lon="3.77367">
        <ele>197.08172154062</ele>
        <time>2018-09-02T13:24:26Z</time>
      </trkpt>
      <trkpt lat="43.78425" lon="3.77358">
        <ele>198.08141156488</ele>
        <time>2018-09-02T13:24:32Z</time>
      </trkpt>
      <trkpt lat="43.78431" lon="3.7735">
        <ele>197.08108363708</ele>
        <time>2018-09-02T13:24:38Z</time>
      </trkpt>
      <trkpt lat="43.78436" lon="3.77341">
        <ele>198.08077879959</ele>
        <time>2018-09-02T13:24:43Z</time>
      </trkpt>
      <trkpt lat="43.78441" lon="3.77334">
        <ele>198.08049515296</ele>
        <time>2018-09-02T13:24:49Z</time>
      </trkpt>
      <trkpt lat="43.78447" lon="3.77328">
        <ele>199.08027631097</ele>
        <time>2018-09-02T13:24:54Z</time>
      </trkpt>
      <trkpt lat="43.78454" lon="3.77321">
        <ele>199.08000732735</ele>
        <time>2018-09-02T13:25:00Z</time>
      </trkpt>
      <trkpt lat="43.7846" lon="3.77316">
        <ele>199.07981040391</ele>
        <time>2018-09-02T13:25:05Z</time>
      </trkpt>
      <trkpt lat="43.78467" lon="3.77308">
        <ele>199.07951045999</ele>
        <time>2018-09-02T13:25:11Z</time>
      </trkpt>
      <trkpt lat="43.78473" lon="3.773">
        <ele>199.07920049668</ele>
        <time>2018-09-02T13:25:17Z</time>
      </trkpt>
      <trkpt lat="43.78478" lon="3.7729">
        <ele>198.07885453144</ele>
        <time>2018-09-02T13:25:23Z</time>
      </trkpt>
      <trkpt lat="43.78483" lon="3.7728">
        <ele>198.07848921652</ele>
        <time>2018-09-02T13:25:29Z</time>
      </trkpt>
      <trkpt lat="43.78487" lon="3.7727">
        <ele>199.07814230529</ele>
        <time>2018-09-02T13:25:35Z</time>
      </trkpt>
      <trkpt lat="43.78491" lon="3.77262">
        <ele>199.07782719342</ele>
        <time>2018-09-02T13:25:40Z</time>
      </trkpt>
      <trkpt lat="43.78497" lon="3.77252">
        <ele>200.07749425849</ele>
        <time>2018-09-02T13:25:45Z</time>
      </trkpt>
      <trkpt lat="43.78502" lon="3.77243">
        <ele>201.07714567426</ele>
        <time>2018-09-02T13:25:52Z</time>
      </trkpt>
      <trkpt lat="43.78506" lon="3.77232">
        <ele>201.07676389608</ele>
        <time>2018-09-02T13:25:58Z</time>
      </trkpt>
      <trkpt lat="43.78509" lon="3.77223">
        <ele>200.07642681393</ele>
        <time>2018-09-02T13:26:04Z</time>
      </trkpt>
      <trkpt lat="43.78513" lon="3.77215">
        <ele>200.07614879545</ele>
        <time>2018-09-02T13:26:09Z</time>
      </trkpt>
      <trkpt lat="43.78516" lon="3.77204">
        <ele>201.07577441523</ele>
        <time>2018-09-02T13:26:13Z</time>
      </trkpt>
      <trkpt lat="43.78518" lon="3.77192">
        <ele>202.07535444717</ele>
        <time>2018-09-02T13:26:20Z</time>
      </trkpt>
      <trkpt lat="43.78519" lon="3.7718">
        <ele>203.07493321082</ele>
        <time>2018-09-02T13:26:26Z</time>
      </trkpt>
      <trkpt lat="43.78519" lon="3.7717">
        <ele>204.07457104779</ele>
        <time>2018-09-02T13:26:31Z</time>
      </trkpt>
      <trkpt lat="43.7852" lon="3.7716">
        <ele>203.0742225416</ele>
        <time>2018-09-02T13:26:36Z</time>
      </trkpt>
      <trkpt lat="43.78519" lon="3.77151">
        <ele>204.07394139603</ele>
        <time>2018-09-02T13:26:40Z</time>
      </trkpt>
      <trkpt lat="43.7852" lon="3.7714">
        <ele>204.07355361887</ele>
        <time>2018-09-02T13:26:45Z</time>
      </trkpt>
      <trkpt lat="43.7852" lon="3.77128">
        <ele>205.07313058889</ele>
        <time>2018-09-02T13:26:51Z</time>
      </trkpt>
      <trkpt lat="43.78521" lon="3.77116">
        <ele>206.07270662456</ele>
        <time>2018-09-02T13:26:58Z</time>
      </trkpt>
      <trkpt lat="43.78523" lon="3.77104">
        <ele>206.07231637259</ele>
        <time>2018-09-02T13:27:04Z</time>
      </trkpt>
      <trkpt lat="43.78525" lon="3.77093">
        <ele>205.07192027845</ele>
        <time>2018-09-02T13:27:11Z</time>
      </trkpt>
      <trkpt lat="43.78528" lon="3.77083">
        <ele>205.07155321763</ele>
        <time>2018-09-02T13:27:17Z</time>
      </trkpt>
      <trkpt lat="43.7853" lon="3.77073">
        <ele>205.07121793756</ele>
        <time>2018-09-02T13:27:22Z</time>
      </trkpt>
      <trkpt lat="43.78534" lon="3.77063">
        <ele>204.07085525128</ele>
        <time>2018-09-02T13:27:27Z</time>
      </trkpt>
      <trkpt lat="43.78538" lon="3.77054">
        <ele>204.07051750732</ele>
        <time>2018-09-02T13:27:33Z</time>
      </trkpt>
      <trkpt lat="43.78541" lon="3.77043">
        <ele>203.07015142117</ele>
        <time>2018-09-02T13:27:40Z</time>
      </trkpt>
      <trkpt lat="43.78544" lon="3.77031">
        <ele>204.06973290476</ele>
        <time>2018-09-02T13:27:47Z</time>
      </trkpt>
      <trkpt lat="43.78545" lon="3.7702">
        <ele>205.06933913099</ele>
        <time>2018-09-02T13:27:52Z</time>
      </trkpt>
      <trkpt lat="43.78546" lon="3.77008">
        <ele>208.06893253774</ele>
        <time>2018-09-02T13:27:59Z</time>
      </trkpt>
      <trkpt lat="43.78548" lon="3.76997">
        <ele>209.0685391489</ele>
        <time>2018-09-02T13:28:05Z</time>
      </trkpt>
      <trkpt lat="43.7855" lon="3.76985">
        <ele>210.06811648594</ele>
        <time>2018-09-02T13:28:11Z</time>
      </trkpt>
      <trkpt lat="43.78554" lon="3.76974">
        <ele>208.06773981382</ele>
        <time>2018-09-02T13:31:26Z</time>
      </trkpt>
      <trkpt lat="43.78556" lon="3.76962">
        <ele>206.06733197486</ele>
        <time>2018-09-02T13:31:34Z</time>
      </trkpt>
      <trkpt lat="43.78558" lon="3.76952">
        <ele>206.06696064503</ele>
        <time>2018-09-02T13:31:40Z</time>
      </trkpt>
      <trkpt lat="43.78558" lon="3.76941">
        <ele>205.06659242811</ele>
        <time>2018-09-02T13:31:46Z</time>
      </trkpt>
      <trkpt lat="43.7856" lon="3.7693">
        <ele>203.06619060609</ele>
        <time>2018-09-02T13:31:52Z</time>
      </trkpt>
      <trkpt lat="43.78562" lon="3.76918">
        <ele>202.06578915194</ele>
        <time>2018-09-02T13:31:59Z</time>
      </trkpt>
      <trkpt lat="43.78564" lon="3.76906">
        <ele>204.06537710299</ele>
        <time>2018-09-02T13:32:40Z</time>
      </trkpt>
      <trkpt lat="43.78567" lon="3.76896">
        <ele>202.06500860838</ele>
        <time>2018-09-02T13:32:47Z</time>
      </trkpt>
      <trkpt lat="43.78571" lon="3.76885">
        <ele>201.06464561996</ele>
        <time>2018-09-02T13:32:53Z</time>
      </trkpt>
      <trkpt lat="43.78572" lon="3.76873">
        <ele>202.06422027237</ele>
        <time>2018-09-02T13:32:59Z</time>
      </trkpt>
      <trkpt lat="43.78575" lon="3.76861">
        <ele>203.06380595124</ele>
        <time>2018-09-02T13:33:06Z</time>
      </trkpt>
      <trkpt lat="43.78572" lon="3.7685">
        <ele>201.06341719427</ele>
        <time>2018-09-02T13:33:13Z</time>
      </trkpt>
      <trkpt lat="43.78574" lon="3.76839">
        <ele>201.06304095414</ele>
        <time>2018-09-02T13:33:19Z</time>
      </trkpt>
      <trkpt lat="43.78576" lon="3.76827">
        <ele>200.0626209454</ele>
        <time>2018-09-02T13:33:25Z</time>
      </trkpt>
      <trkpt lat="43.78577" lon="3.76815">
        <ele>201.06221027712</ele>
        <time>2018-09-02T13:33:31Z</time>
      </trkpt>
      <trkpt lat="43.78577" lon="3.76804">
        <ele>201.06182064266</ele>
        <time>2018-09-02T13:33:36Z</time>
      </trkpt>
      <trkpt lat="43.78577" lon="3.76793">
        <ele>200.06144330814</ele>
        <time>2018-09-02T13:33:42Z</time>
      </trkpt>
      <trkpt lat="43.78576" lon="3.76781">
        <ele>201.06106423338</ele>
        <time>2018-09-02T13:33:47Z</time>
      </trkpt>
      <trkpt lat="43.78577" lon="3.7677">
        <ele>201.060656153</ele>
        <time>2018-09-02T13:33:53Z</time>
      </trkpt>
      <trkpt lat="43.78578" lon="3.76759">
        <ele>199.06027947503</ele>
        <time>2018-09-02T13:33:59Z</time>
      </trkpt>
      <trkpt lat="43.78577" lon="3.76746">
        <ele>199.05985900701</ele>
        <time>2018-09-02T13:34:06Z</time>
      </trkpt>
      <trkpt lat="43.78576" lon="3.76734">
        <ele>198.05945352236</ele>
        <time>2018-09-02T13:34:12Z</time>
      </trkpt>
      <trkpt lat="43.78576" lon="3.76722">
        <ele>197.05902783354</ele>
        <time>2018-09-02T13:34:18Z</time>
      </trkpt>
      <trkpt lat="43.78577" lon="3.7671">
        <ele>196.05861821316</ele>
        <time>2018-09-02T13:34:24Z</time>
      </trkpt>
      <trkpt lat="43.78577" lon="3.76698">
        <ele>196.05821238153</ele>
        <time>2018-09-02T13:34:29Z</time>
      </trkpt>
      <trkpt lat="43.78576" lon="3.76688">
        <ele>196.05785004015</ele>
        <time>2018-09-02T13:34:35Z</time>
      </trkpt>
      <trkpt lat="43.78578" lon="3.76676">
        <ele>196.05744068898</ele>
        <time>2018-09-02T13:34:41Z</time>
      </trkpt>
      <trkpt lat="43.78579" lon="3.76665">
        <ele>197.05706257768</ele>
        <time>2018-09-02T13:34:46Z</time>
      </trkpt>
      <trkpt lat="43.78582" lon="3.76654">
        <ele>198.05667094754</ele>
        <time>2018-09-02T13:34:52Z</time>
      </trkpt>
      <trkpt lat="43.78584" lon="3.76643">
        <ele>198.05629788215</ele>
        <time>2018-09-02T13:34:57Z</time>
      </trkpt>
      <trkpt lat="43.78586" lon="3.76631">
        <ele>198.05588962809</ele>
        <time>2018-09-02T13:35:03Z</time>
      </trkpt>
      <trkpt lat="43.78589" lon="3.7662">
        <ele>196.05548977444</ele>
        <time>2018-09-02T13:35:09Z</time>
      </trkpt>
      <trkpt lat="43.78591" lon="3.76608">
        <ele>195.05507226302</ele>
        <time>2018-09-02T13:35:15Z</time>
      </trkpt>
      <trkpt lat="43.78591" lon="3.76597">
        <ele>196.05471293688</ele>
        <time>2018-09-02T13:35:20Z</time>
      </trkpt>
      <trkpt lat="43.78591" lon="3.76587">
        <ele>196.05435257033</ele>
        <time>2018-09-02T13:35:27Z</time>
      </trkpt>
      <trkpt lat="43.78592" lon="3.76577">
        <ele>196.05399961255</ele>
        <time>2018-09-02T13:35:32Z</time>
      </trkpt>
      <trkpt lat="43.78593" lon="3.76566">
        <ele>197.05363263562</ele>
        <time>2018-09-02T13:35:37Z</time>
      </trkpt>
      <trkpt lat="43.78592" lon="3.76555">
        <ele>197.05326942439</ele>
        <time>2018-09-02T13:35:42Z</time>
      </trkpt>
      <trkpt lat="43.7859" lon="3.76544">
        <ele>197.05287330341</ele>
        <time>2018-09-02T13:35:48Z</time>
      </trkpt>
      <trkpt lat="43.78587" lon="3.76533">
        <ele>196.05250874457</ele>
        <time>2018-09-02T13:35:54Z</time>
      </trkpt>
      <trkpt lat="43.78585" lon="3.76521">
        <ele>195.05212400629</ele>
        <time>2018-09-02T13:36:00Z</time>
      </trkpt>
      <trkpt lat="43.78583" lon="3.76511">
        <ele>194.0517873455</ele>
        <time>2018-09-02T13:36:05Z</time>
      </trkpt>
      <trkpt lat="43.78579" lon="3.765">
        <ele>194.05142328521</ele>
        <time>2018-09-02T13:36:10Z</time>
      </trkpt>
      <trkpt lat="43.78579" lon="3.76489">
        <ele>193.05104217271</ele>
        <time>2018-09-02T13:36:15Z</time>
      </trkpt>
      <trkpt lat="43.78577" lon="3.76478">
        <ele>195.050661839</ele>
        <time>2018-09-02T13:36:21Z</time>
      </trkpt>
      <trkpt lat="43.78575" lon="3.76468">
        <ele>195.05030557675</ele>
        <time>2018-09-02T13:36:27Z</time>
      </trkpt>
      <trkpt lat="43.78573" lon="3.76457">
        <ele>196.04994470589</ele>
        <time>2018-09-02T13:36:33Z</time>
      </trkpt>
      <trkpt lat="43.7857" lon="3.76446">
        <ele>195.049585724</ele>
        <time>2018-09-02T13:36:39Z</time>
      </trkpt>
      <trkpt lat="43.78567" lon="3.76437">
        <ele>194.04928813949</ele>
        <time>2018-09-02T13:36:44Z</time>
      </trkpt>
      <trkpt lat="43.78563" lon="3.76426">
        <ele>193.04890695427</ele>
        <time>2018-09-02T13:36:49Z</time>
      </trkpt>
      <trkpt lat="43.78559" lon="3.76416">
        <ele>194.04856497527</ele>
        <time>2018-09-02T13:36:55Z</time>
      </trkpt>
      <trkpt lat="43.78553" lon="3.76408">
        <ele>194.04830573349</ele>
        <time>2018-09-02T13:37:00Z</time>
      </trkpt>
      <trkpt lat="43.78549" lon="3.76397">
        <ele>194.04794010278</ele>
        <time>2018-09-02T13:37:06Z</time>
      </trkpt>
      <trkpt lat="43.78545" lon="3.76388">
        <ele>195.04764189814</ele>
        <time>2018-09-02T13:37:12Z</time>
      </trkpt>
      <trkpt lat="43.78541" lon="3.76378">
        <ele>196.04729684484</ele>
        <time>2018-09-02T13:37:18Z</time>
      </trkpt>
      <trkpt lat="43.78536" lon="3.76368">
        <ele>197.04698513513</ele>
        <time>2018-09-02T13:37:24Z</time>
      </trkpt>
      <trkpt lat="43.78533" lon="3.7636">
        <ele>197.04670798684</ele>
        <time>2018-09-02T13:37:29Z</time>
      </trkpt>
      <trkpt lat="43.7853" lon="3.76349">
        <ele>196.0463315628</ele>
        <time>2018-09-02T13:37:35Z</time>
      </trkpt>
      <trkpt lat="43.78526" lon="3.76339">
        <ele>198.04600126838</ele>
        <time>2018-09-02T13:37:40Z</time>
      </trkpt>
      <trkpt lat="43.78522" lon="3.76328">
        <ele>198.04564317556</ele>
        <time>2018-09-02T13:37:46Z</time>
      </trkpt>
      <trkpt lat="43.78519" lon="3.76319">
        <ele>199.04531930964</ele>
        <time>2018-09-02T13:37:51Z</time>
      </trkpt>
      <trkpt lat="43.78516" lon="3.7631">
        <ele>199.04503248042</ele>
        <time>2018-09-02T13:37:56Z</time>
      </trkpt>
      <trkpt lat="43.78514" lon="3.76299">
        <ele>200.04465572454</ele>
        <time>2018-09-02T13:38:02Z</time>
      </trkpt>
      <trkpt lat="43.78511" lon="3.76288">
        <ele>197.04428504056</ele>
        <time>2018-09-02T13:38:09Z</time>
      </trkpt>
      <trkpt lat="43.78509" lon="3.76276">
        <ele>197.04387957692</ele>
        <time>2018-09-02T13:38:15Z</time>
      </trkpt>
      <trkpt lat="43.78507" lon="3.76268">
        <ele>198.04360382416</ele>
        <time>2018-09-02T13:38:19Z</time>
      </trkpt>
      <trkpt lat="43.78506" lon="3.76257">
        <ele>198.04323005614</ele>
        <time>2018-09-02T13:38:24Z</time>
      </trkpt>
      <trkpt lat="43.78504" lon="3.76245">
        <ele>200.04283272381</ele>
        <time>2018-09-02T13:38:30Z</time>
      </trkpt>
      <trkpt lat="43.78502" lon="3.76234">
        <ele>200.04244549417</ele>
        <time>2018-09-02T13:38:36Z</time>
      </trkpt>
      <trkpt lat="43.78502" lon="3.76222">
        <ele>200.04201919401</ele>
        <time>2018-09-02T13:38:42Z</time>
      </trkpt>
      <trkpt lat="43.785" lon="3.76211">
        <ele>202.04165040509</ele>
        <time>2018-09-02T13:38:47Z</time>
      </trkpt>
      <trkpt lat="43.78498" lon="3.76199">
        <ele>202.04124956546</ele>
        <time>2018-09-02T13:38:53Z</time>
      </trkpt>
      <trkpt lat="43.78495" lon="3.76188">
        <ele>203.04086985744</ele>
        <time>2018-09-02T13:38:59Z</time>
      </trkpt>
      <trkpt lat="43.78492" lon="3.76177">
        <ele>202.04051408575</ele>
        <time>2018-09-02T13:39:05Z</time>
      </trkpt>
      <trkpt lat="43.78489" lon="3.76167">
        <ele>201.04016210673</ele>
        <time>2018-09-02T13:39:11Z</time>
      </trkpt>
      <trkpt lat="43.78484" lon="3.76158">
        <ele>201.03985472491</ele>
        <time>2018-09-02T13:39:17Z</time>
      </trkpt>
      <trkpt lat="43.7848" lon="3.76147">
        <ele>200.03948376057</ele>
        <time>2018-09-02T13:39:23Z</time>
      </trkpt>
      <trkpt lat="43.78477" lon="3.76136">
        <ele>201.03912805351</ele>
        <time>2018-09-02T13:39:29Z</time>
      </trkpt>
      <trkpt lat="43.78473" lon="3.76126">
        <ele>203.03877570544</ele>
        <time>2018-09-02T13:39:37Z</time>
      </trkpt>
      <trkpt lat="43.78467" lon="3.76117">
        <ele>203.03848428156</ele>
        <time>2018-09-02T13:39:43Z</time>
      </trkpt>
      <trkpt lat="43.7846" lon="3.7611">
        <ele>204.03826605422</ele>
        <time>2018-09-02T13:39:50Z</time>
      </trkpt>
      <trkpt lat="43.78454" lon="3.76103">
        <ele>205.03801782224</ele>
        <time>2018-09-02T13:39:56Z</time>
      </trkpt>
      <trkpt lat="43.78448" lon="3.76095">
        <ele>205.03775047527</ele>
        <time>2018-09-02T13:40:02Z</time>
      </trkpt>
      <trkpt lat="43.78443" lon="3.76087">
        <ele>204.03750021324</ele>
        <time>2018-09-02T13:40:07Z</time>
      </trkpt>
      <trkpt lat="43.78437" lon="3.76079">
        <ele>204.03721595378</ele>
        <time>2018-09-02T13:40:13Z</time>
      </trkpt>
      <trkpt lat="43.78433" lon="3.76069">
        <ele>205.03688206349</ele>
        <time>2018-09-02T13:40:19Z</time>
      </trkpt>
      <trkpt lat="43.78427" lon="3.7606">
        <ele>204.03657193725</ele>
        <time>2018-09-02T13:40:25Z</time>
      </trkpt>
      <trkpt lat="43.78418" lon="3.76058">
        <ele>207.03651626379</ele>
        <time>2018-09-02T13:41:52Z</time>
      </trkpt>
      <trkpt lat="43.78421" lon="3.76046">
        <ele>204.03611361517</ele>
        <time>2018-09-02T13:51:36Z</time>
      </trkpt>
      <trkpt lat="43.78417" lon="3.76035">
        <ele>206.03574037664</ele>
        <time>2018-09-02T13:52:16Z</time>
      </trkpt>
      <trkpt lat="43.78407" lon="3.76018">
        <ele>204.03516650992</ele>
        <time>2018-09-02T13:52:37Z</time>
      </trkpt>
      <trkpt lat="43.78399" lon="3.76019">
        <ele>206.03521070069</ele>
        <time>2018-09-02T13:53:09Z</time>
      </trkpt>
      <trkpt lat="43.78392" lon="3.76011">
        <ele>205.03496490246</ele>
        <time>2018-09-02T13:53:16Z</time>
      </trkpt>
      <trkpt lat="43.78387" lon="3.76002">
        <ele>206.03466045069</ele>
        <time>2018-09-02T13:53:23Z</time>
      </trkpt>
      <trkpt lat="43.7838" lon="3.75995">
        <ele>205.03440952693</ele>
        <time>2018-09-02T13:53:32Z</time>
      </trkpt>
      <trkpt lat="43.78373" lon="3.75988">
        <ele>206.03417249641</ele>
        <time>2018-09-02T13:53:40Z</time>
      </trkpt>
      <trkpt lat="43.78365" lon="3.75982">
        <ele>206.03400759742</ele>
        <time>2018-09-02T13:53:46Z</time>
      </trkpt>
      <trkpt lat="43.78358" lon="3.75975">
        <ele>206.03376541766</ele>
        <time>2018-09-02T13:53:52Z</time>
      </trkpt>
      <trkpt lat="43.78351" lon="3.75967">
        <ele>207.03350681696</ele>
        <time>2018-09-02T13:53:59Z</time>
      </trkpt>
      <trkpt lat="43.78345" lon="3.75961">
        <ele>207.03329764361</ele>
        <time>2018-09-02T13:54:04Z</time>
      </trkpt>
      <trkpt lat="43.78341" lon="3.75952">
        <ele>206.03300035683</ele>
        <time>2018-09-02T13:54:10Z</time>
      </trkpt>
      <trkpt lat="43.78339" lon="3.75941">
        <ele>208.03261244158</ele>
        <time>2018-09-02T13:54:16Z</time>
      </trkpt>
      <trkpt lat="43.78336" lon="3.75931">
        <ele>207.03228176125</ele>
        <time>2018-09-02T13:54:27Z</time>
      </trkpt>
      <trkpt lat="43.78335" lon="3.75919">
        <ele>207.03185581739</ele>
        <time>2018-09-02T13:54:33Z</time>
      </trkpt>
      <trkpt lat="43.78336" lon="3.75908">
        <ele>207.03146106</ele>
        <time>2018-09-02T13:54:38Z</time>
      </trkpt>
      <trkpt lat="43.78337" lon="3.75897">
        <ele>208.03109418342</ele>
        <time>2018-09-02T13:54:44Z</time>
      </trkpt>
      <trkpt lat="43.78337" lon="3.75885">
        <ele>208.03068312424</ele>
        <time>2018-09-02T13:54:50Z</time>
      </trkpt>
      <trkpt lat="43.78336" lon="3.75873">
        <ele>207.03026648846</ele>
        <time>2018-09-02T13:54:57Z</time>
      </trkpt>
      <trkpt lat="43.78334" lon="3.75862">
        <ele>206.0298650187</ele>
        <time>2018-09-02T13:55:03Z</time>
      </trkpt>
      <trkpt lat="43.78335" lon="3.75851">
        <ele>207.02949558438</ele>
        <time>2018-09-02T13:55:08Z</time>
      </trkpt>
      <trkpt lat="43.78337" lon="3.7584">
        <ele>208.02911392457</ele>
        <time>2018-09-02T13:55:13Z</time>
      </trkpt>
      <trkpt lat="43.78338" lon="3.75829">
        <ele>208.02872327113</ele>
        <time>2018-09-02T13:55:19Z</time>
      </trkpt>
      <trkpt lat="43.78339" lon="3.75817">
        <ele>208.02832140779</ele>
        <time>2018-09-02T13:55:25Z</time>
      </trkpt>
      <trkpt lat="43.78342" lon="3.75806">
        <ele>210.02792490331</ele>
        <time>2018-09-02T13:55:31Z</time>
      </trkpt>
      <trkpt lat="43.78343" lon="3.75794">
        <ele>208.0274999206</ele>
        <time>2018-09-02T13:55:38Z</time>
      </trkpt>
      <trkpt lat="43.78346" lon="3.75785">
        <ele>209.02718769743</ele>
        <time>2018-09-02T13:55:44Z</time>
      </trkpt>
      <trkpt lat="43.78347" lon="3.75774">
        <ele>208.02682215182</ele>
        <time>2018-09-02T13:55:49Z</time>
      </trkpt>
      <trkpt lat="43.78346" lon="3.75763">
        <ele>209.02642869037</ele>
        <time>2018-09-02T13:55:55Z</time>
      </trkpt>
      <trkpt lat="43.78343" lon="3.75751">
        <ele>209.02603435362</ele>
        <time>2018-09-02T13:56:01Z</time>
      </trkpt>
      <trkpt lat="43.78341" lon="3.75739">
        <ele>209.02562252172</ele>
        <time>2018-09-02T13:56:08Z</time>
      </trkpt>
      <trkpt lat="43.78338" lon="3.75729">
        <ele>210.02525342125</ele>
        <time>2018-09-02T13:56:17Z</time>
      </trkpt>
      <trkpt lat="43.78336" lon="3.75719">
        <ele>210.02492549003</ele>
        <time>2018-09-02T13:56:22Z</time>
      </trkpt>
      <trkpt lat="43.78332" lon="3.75708">
        <ele>209.02455496303</ele>
        <time>2018-09-02T13:56:28Z</time>
      </trkpt>
      <trkpt lat="43.78329" lon="3.75697">
        <ele>215.02416343886</ele>
        <time>2018-09-02T13:57:17Z</time>
      </trkpt>
      <trkpt lat="43.78328" lon="3.75685">
        <ele>212.02374855363</ele>
        <time>2018-09-02T13:57:28Z</time>
      </trkpt>
      <trkpt lat="43.78324" lon="3.75674">
        <ele>212.02338495208</ele>
        <time>2018-09-02T13:57:38Z</time>
      </trkpt>
      <trkpt lat="43.78332" lon="3.75672">
        <ele>212.02329344311</ele>
        <time>2018-09-02T13:57:51Z</time>
      </trkpt>
      <trkpt lat="43.78339" lon="3.7567">
        <ele>212.02321273147</ele>
        <time>2018-09-02T13:57:56Z</time>
      </trkpt>
      <trkpt lat="43.78346" lon="3.75665">
        <ele>211.02303180129</ele>
        <time>2018-09-02T13:58:03Z</time>
      </trkpt>
      <trkpt lat="43.78353" lon="3.75658">
        <ele>211.02278928479</ele>
        <time>2018-09-02T13:58:11Z</time>
      </trkpt>
      <trkpt lat="43.78361" lon="3.75655">
        <ele>211.02267331561</ele>
        <time>2018-09-02T13:58:17Z</time>
      </trkpt>
      <trkpt lat="43.78368" lon="3.75647">
        <ele>211.02240487985</ele>
        <time>2018-09-02T13:58:25Z</time>
      </trkpt>
      <trkpt lat="43.78375" lon="3.75647">
        <ele>212.02239140682</ele>
        <time>2018-09-02T13:58:30Z</time>
      </trkpt>
      <trkpt lat="43.78383" lon="3.75649">
        <ele>213.02245187921</ele>
        <time>2018-09-02T13:58:36Z</time>
      </trkpt>
      <trkpt lat="43.78391" lon="3.75652">
        <ele>213.02253729099</ele>
        <time>2018-09-02T13:58:42Z</time>
      </trkpt>
      <trkpt lat="43.784" lon="3.75652">
        <ele>213.02254532667</ele>
        <time>2018-09-02T13:58:49Z</time>
      </trkpt>
      <trkpt lat="43.78408" lon="3.75656">
        <ele>213.02264768409</ele>
        <time>2018-09-02T13:58:55Z</time>
      </trkpt>
      <trkpt lat="43.78416" lon="3.75661">
        <ele>213.02281343453</ele>
        <time>2018-09-02T13:59:01Z</time>
      </trkpt>
      <trkpt lat="43.78424" lon="3.75655">
        <ele>209.02259711681</ele>
        <time>2018-09-02T13:59:57Z</time>
      </trkpt>
      <trkpt lat="43.78431" lon="3.75658">
        <ele>209.02270310966</ele>
        <time>2018-09-02T14:00:03Z</time>
      </trkpt>
      <trkpt lat="43.78437" lon="3.75667">
        <ele>209.02300414079</ele>
        <time>2018-09-02T14:00:10Z</time>
      </trkpt>
      <trkpt lat="43.78444" lon="3.75675">
        <ele>208.02329224016</ele>
        <time>2018-09-02T14:00:18Z</time>
      </trkpt>
      <trkpt lat="43.7845" lon="3.75683">
        <ele>208.02355389825</ele>
        <time>2018-09-02T14:00:25Z</time>
      </trkpt>
      <trkpt lat="43.78452" lon="3.75684">
        <ele>207.02359655142</ele>
        <time>2018-09-02T14:00:55Z</time>
      </trkpt>
      <trkpt lat="43.78452" lon="3.75684">
        <ele>207.02359655142</ele>
        <time>2018-09-02T14:00:55Z</time>
      </trkpt>
    </trkseg>
  </trk>
</gpx>